Observation data for Fort Lancaster on 05/24/2020      Previous  Date  Next       Current Mesonet Observations  Soil Data  Daily Summary Page  Observations in Plain Language
KLA1 240500Z 13005KT 23/13 A2986 RMK A01 T02250132  RH  056%=      5-min Rain = 0
KLA1 240501Z 13005KT 23/13 A2986 RMK A01 T02260132  RH  056%=      5-min Rain = 0
KLA1 240502Z 14005KT 23/13 A2986 RMK A01 T02250132  RH  056%=      5-min Rain = 0
KLA1 240503Z 14005KT 23/13 A2986 RMK A01 T02250133  RH  056%=      5-min Rain = 0
KLA1 240504Z 14005KT 23/13 A2986 RMK A01 T02250133  RH  056%=      5-min Rain = 0
KLA1 240505Z 13006KT 22/13 A2986 RMK A01 T02240133  RH  056%=      5-min Rain = 0
KLA1 240506Z 13006KT 22/13 A2986 RMK A01 T02240133  RH  056%=      5-min Rain = 0
KLA1 240507Z 13006KT 22/13 A2986 RMK A01 T02240133  RH  056%=      5-min Rain = 0
KLA1 240508Z 13007KT 22/13 A2986 RMK A01 T02240133  RH  056%=      5-min Rain = 0
KLA1 240509Z 13006KT 22/13 A2986 RMK A01 T02240133  RH  056%=      5-min Rain = 0
KLA1 240510Z 14007KT 22/13 A2986 RMK A01 T02240133  RH  056%=      5-min Rain = 0
KLA1 240511Z 13007KT 22/13 A2986 RMK A01 T02240133  RH  056%=      5-min Rain = 0
KLA1 240512Z 13007KT 22/13 A2986 RMK A01 T02240133  RH  056%=      5-min Rain = 0
KLA1 240513Z 12007KT 22/13 A2986 RMK A01 T02240133  RH  056%=      5-min Rain = 0
KLA1 240514Z 12007KT 22/13 A2986 RMK A01 T02240133  RH  056%=      5-min Rain = 0
KLA1 240515Z 13006KT 22/13 A2986 RMK A01 T02240134  RH  056%=      5-min Rain = 0
KLA1 240516Z 13007KT 22/13 A2986 RMK A01 T02240134  RH  056%=      5-min Rain = 0
KLA1 240517Z 13009KT 22/13 A2986 RMK A01 T02240134  RH  057%=      5-min Rain = 0
KLA1 240518Z 12007KT 22/13 A2986 RMK A01 T02240134  RH  057%=      5-min Rain = 0
KLA1 240519Z 13008KT 23/13 A2986 RMK A01 T02250134  RH  056%=      5-min Rain = 0
KLA1 240520Z 13008KT 22/13 A2986 RMK A01 T02240134  RH  056%=      5-min Rain = 0
KLA1 240521Z 13009KT 23/13 A2986 RMK A01 T02250134  RH  056%=      5-min Rain = 0
KLA1 240522Z 13009KT 23/13 A2986 RMK A01 T02250134  RH  056%=      5-min Rain = 0
KLA1 240523Z 13008KT 23/13 A2986 RMK A01 T02250134  RH  056%=      5-min Rain = 0
KLA1 240524Z 13008KT 23/13 A2986 RMK A01 T02250134  RH  056%=      5-min Rain = 0
KLA1 240525Z 13007KT 23/13 A2986 RMK A01 T02250134  RH  056%=      5-min Rain = 0
KLA1 240526Z 13008KT 22/13 A2986 RMK A01 T02240134  RH  057%=      5-min Rain = 0
KLA1 240527Z 12008KT 22/13 A2986 RMK A01 T02240134  RH  057%=      5-min Rain = 0
KLA1 240528Z 12009KT 22/13 A2986 RMK A01 T02240134  RH  057%=      5-min Rain = 0
KLA1 240529Z 13010KT 22/13 A2986 RMK A01 T02240134  RH  057%=      5-min Rain = 0
KLA1 240530Z 12008KT 23/13 A2986 RMK A01 T02250134  RH  057%=      5-min Rain = 0
KLA1 240531Z 12008KT 23/13 A2986 RMK A01 T02250134  RH  056%=      5-min Rain = 0
KLA1 240532Z 13009KT 23/13 A2986 RMK A01 T02250134  RH  056%=      5-min Rain = 0
KLA1 240533Z 13008KT 23/13 A2986 RMK A01 T02250134  RH  056%=      5-min Rain = 0
KLA1 240534Z 12009KT 23/13 A2986 RMK A01 T02250134  RH  056%=      5-min Rain = 0
KLA1 240535Z 13008KT 23/13 A2986 RMK A01 T02250134  RH  056%=      5-min Rain = 0
KLA1 240536Z 13007KT 23/13 A2986 RMK A01 T02250134  RH  056%=      5-min Rain = 0
KLA1 240537Z 13007KT 23/13 A2986 RMK A01 T02260134  RH  056%=      5-min Rain = 0
KLA1 240538Z 13006KT 23/13 A2986 RMK A01 T02260134  RH  056%=      5-min Rain = 0
KLA1 240539Z 14008KT 23/13 A2987 RMK A01 T02260134  RH  056%=      5-min Rain = 0
KLA1 240540Z 13008KT 23/14 A2987 RMK A01 T02260135  RH  056%=      5-min Rain = 0
KLA1 240541Z 13006KT 23/13 A2987 RMK A01 T02260134  RH  056%=      5-min Rain = 0
KLA1 240542Z 12006KT 23/13 A2987 RMK A01 T02250134  RH  056%=      5-min Rain = 0
KLA1 240543Z 13006KT 23/13 A2987 RMK A01 T02250134  RH  056%=      5-min Rain = 0
KLA1 240544Z 13005KT 23/13 A2987 RMK A01 T02250134  RH  056%=      5-min Rain = 0
KLA1 240545Z 12005KT 23/13 A2987 RMK A01 T02250134  RH  056%=      5-min Rain = 0
KLA1 240546Z 13006KT 23/13 A2987 RMK A01 T02250134  RH  057%=      5-min Rain = 0
KLA1 240547Z 12007KT 23/13 A2987 RMK A01 T02250134  RH  057%=      5-min Rain = 0
KLA1 240548Z 12005KT 23/13 A2987 RMK A01 T02250134  RH  057%=      5-min Rain = 0
KLA1 240549Z 13007KT 23/13 A2987 RMK A01 T02250134  RH  056%=      5-min Rain = 0
KLA1 240550Z 12005KT 23/13 A2987 RMK A01 T02250134  RH  056%=      5-min Rain = 0
KLA1 240551Z 13005KT 23/13 A2987 RMK A01 T02250134  RH  056%=      5-min Rain = 0
KLA1 240552Z 11005KT 23/13 A2987 RMK A01 T02250134  RH  056%=      5-min Rain = 0
KLA1 240553Z 12006KT 22/13 A2987 RMK A01 T02240134  RH  056%=      5-min Rain = 0
KLA1 240554Z 12004KT 23/13 A2987 RMK A01 T02250134  RH  057%=      5-min Rain = 0
KLA1 240555Z 12006KT 23/13 A2987 RMK A01 T02250134  RH  057%=      5-min Rain = 0
KLA1 240556Z 13006KT 23/13 A2987 RMK A01 T02250134  RH  056%=      5-min Rain = 0
KLA1 240557Z 12005KT 23/13 A2987 RMK A01 T02250134  RH  056%=      5-min Rain = 0
KLA1 240558Z 12007KT 22/13 A2987 RMK A01 T02240134  RH  056%=      5-min Rain = 0
KLA1 240559Z 12006KT 23/13 A2987 RMK A01 T02250134  RH  056%=      5-min Rain = 0
KLA1 240600Z 12008KT 23/13 A2987 RMK A01 T02250134  RH  056%=      5-min Rain = 0
KLA1 240601Z 11005KT 23/13 A2987 RMK A01 T02250134  RH  056%=      5-min Rain = 0
KLA1 240602Z 12005KT 23/13 A2987 RMK A01 T02250134  RH  056%=      5-min Rain = 0
KLA1 240603Z 13006KT 23/13 A2987 RMK A01 T02250134  RH  056%=      5-min Rain = 0
KLA1 240604Z 12006KT 22/13 A2987 RMK A01 T02240134  RH  057%=      5-min Rain = 0
KLA1 240605Z 12006KT 22/13 A2987 RMK A01 T02240134  RH  057%=      5-min Rain = 0
KLA1 240606Z 13006KT 23/14 A2987 RMK A01 T02250135  RH  057%=      5-min Rain = 0
KLA1 240607Z 13007KT 22/13 A2987 RMK A01 T02240134  RH  057%=      5-min Rain = 0
KLA1 240608Z 13005KT 22/14 A2987 RMK A01 T02240135  RH  057%=      5-min Rain = 0
KLA1 240609Z 13007KT 22/13 A2987 RMK A01 T02240134  RH  057%=      5-min Rain = 0
KLA1 240610Z 12006KT 22/13 A2987 RMK A01 T02240134  RH  057%=      5-min Rain = 0
KLA1 240611Z 13007KT 22/14 A2987 RMK A01 T02240135  RH  057%=      5-min Rain = 0
KLA1 240612Z 12005KT 22/14 A2987 RMK A01 T02240135  RH  057%=      5-min Rain = 0
KLA1 240613Z 13007KT 22/14 A2987 RMK A01 T02230135  RH  057%=      5-min Rain = 0
KLA1 240614Z 13008KT 22/14 A2987 RMK A01 T02230135  RH  057%=      5-min Rain = 0
KLA1 240615Z 13005KT 22/14 A2987 RMK A01 T02230135  RH  057%=      5-min Rain = 0
KLA1 240616Z 13005KT 22/14 A2987 RMK A01 T02230135  RH  057%=      5-min Rain = 0
KLA1 240617Z 13006KT 22/14 A2987 RMK A01 T02230136  RH  058%=      5-min Rain = 0
KLA1 240618Z 12006KT 22/14 A2987 RMK A01 T02230136  RH  058%=      5-min Rain = 0
KLA1 240619Z 11007KT 22/14 A2987 RMK A01 T02230136  RH  058%=      5-min Rain = 0
KLA1 240620Z 12008KT 22/14 A2987 RMK A01 T02230136  RH  058%=      5-min Rain = 0
KLA1 240621Z 12010KT 22/14 A2987 RMK A01 T02230136  RH  058%=      5-min Rain = 0
KLA1 240622Z 12009KT 22/14 A2987 RMK A01 T02230137  RH  058%=      5-min Rain = 0
KLA1 240623Z 13008KT 22/14 A2987 RMK A01 T02230136  RH  058%=      5-min Rain = 0
KLA1 240624Z 13012KT 22/14 A2987 RMK A01 T02230137  RH  058%=      5-min Rain = 0
KLA1 240625Z 13013KT 22/14 A2987 RMK A01 T02240137  RH  058%=      5-min Rain = 0
KLA1 240626Z 13012KT 22/14 A2987 RMK A01 T02240137  RH  058%=      5-min Rain = 0
KLA1 240627Z 14010KT 23/14 A2987 RMK A01 T02250137  RH  058%=      5-min Rain = 0
KLA1 240628Z 14009KT 22/14 A2987 RMK A01 T02240137  RH  058%=      5-min Rain = 0
KLA1 240629Z 13007KT 22/14 A2987 RMK A01 T02240137  RH  058%=      5-min Rain = 0
KLA1 240630Z 13011KT 22/14 A2987 RMK A01 T02240137  RH  058%=      5-min Rain = 0
KLA1 240631Z 13010KT 22/14 A2987 RMK A01 T02240137  RH  058%=      5-min Rain = 0
KLA1 240632Z 13011KT 22/14 A2986 RMK A01 T02240138  RH  058%=      5-min Rain = 0
KLA1 240633Z 13015KT 22/14 A2986 RMK A01 T02240138  RH  058%=      5-min Rain = 0
KLA1 240634Z 13011KT 22/14 A2986 RMK A01 T02240138  RH  058%=      5-min Rain = 0
KLA1 240635Z 13012G17KT 22/14 A2987 RMK A01 T02240138  RH  058%=      5-min Rain = 0
KLA1 240636Z 13012KT 22/14 A2986 RMK A01 T02230138  RH  058%=      5-min Rain = 0
KLA1 240637Z 14010KT 22/14 A2986 RMK A01 T02230138  RH  058%=      5-min Rain = 0
KLA1 240638Z 14009KT 22/14 A2986 RMK A01 T02230138  RH  059%=      5-min Rain = 0
KLA1 240639Z 12007KT 22/14 A2986 RMK A01 T02220138  RH  059%=      5-min Rain = 0
KLA1 240640Z 13010KT 22/14 A2986 RMK A01 T02210138  RH  059%=      5-min Rain = 0
KLA1 240641Z 14010KT 22/14 A2987 RMK A01 T02210137  RH  059%=      5-min Rain = 0
KLA1 240642Z 14009KT 22/14 A2986 RMK A01 T02210138  RH  059%=      5-min Rain = 0
KLA1 240643Z 13007KT 22/14 A2986 RMK A01 T02200137  RH  059%=      5-min Rain = 0
KLA1 240644Z 13006KT 22/14 A2986 RMK A01 T02200137  RH  059%=      5-min Rain = 0
KLA1 240645Z 13005KT 22/14 A2986 RMK A01 T02190137  RH  059%=      5-min Rain = 0
KLA1 240646Z 13008KT 22/14 A2986 RMK A01 T02180137  RH  060%=      5-min Rain = 0
KLA1 240647Z 13007KT 22/14 A2986 RMK A01 T02180137  RH  060%=      5-min Rain = 0
KLA1 240648Z 13007KT 22/14 A2986 RMK A01 T02180137  RH  060%=      5-min Rain = 0
KLA1 240649Z 13008KT 22/14 A2986 RMK A01 T02180137  RH  060%=      5-min Rain = 0
KLA1 240650Z 13006KT 22/14 A2986 RMK A01 T02180137  RH  060%=      5-min Rain = 0
KLA1 240651Z 13007KT 22/14 A2986 RMK A01 T02170137  RH  060%=      5-min Rain = 0
KLA1 240652Z 13006KT 22/14 A2986 RMK A01 T02170137  RH  060%=      5-min Rain = 0
KLA1 240653Z 13009KT 22/14 A2986 RMK A01 T02170137  RH  061%=      5-min Rain = 0
KLA1 240654Z 12008KT 22/14 A2985 RMK A01 T02160137  RH  061%=      5-min Rain = 0
KLA1 240655Z 13008KT 22/14 A2985 RMK A01 T02160137  RH  061%=      5-min Rain = 0
KLA1 240656Z 12008KT 22/14 A2985 RMK A01 T02160137  RH  061%=      5-min Rain = 0
KLA1 240657Z 13007KT 22/14 A2985 RMK A01 T02160137  RH  061%=      5-min Rain = 0
KLA1 240658Z 13008KT 22/14 A2985 RMK A01 T02150137  RH  061%=      5-min Rain = 0
KLA1 240659Z 13007KT 22/14 A2985 RMK A01 T02150137  RH  061%=      5-min Rain = 0
KLA1 240700Z 13007KT 22/14 A2985 RMK A01 T02150137  RH  061%=      5-min Rain = 0
KLA1 240701Z 13007KT 21/14 A2985 RMK A01 T02140137  RH  061%=      5-min Rain = 0
KLA1 240702Z 13007KT 21/14 A2985 RMK A01 T02140137  RH  061%=      5-min Rain = 0
KLA1 240703Z 13008KT 21/14 A2985 RMK A01 T02140137  RH  062%=      5-min Rain = 0
KLA1 240704Z 14007KT 21/14 A2984 RMK A01 T02130137  RH  062%=      5-min Rain = 0
KLA1 240705Z 14008KT 21/14 A2984 RMK A01 T02130137  RH  062%=      5-min Rain = 0
KLA1 240706Z 14009KT 21/14 A2984 RMK A01 T02130138  RH  062%=      5-min Rain = 0
KLA1 240707Z 13010KT 21/14 A2984 RMK A01 T02130138  RH  062%=      5-min Rain = 0
KLA1 240708Z 14007KT 21/14 A2984 RMK A01 T02130138  RH  062%=      5-min Rain = 0
KLA1 240709Z 13007KT 21/14 A2984 RMK A01 T02130138  RH  062%=      5-min Rain = 0
KLA1 240710Z 13006KT 21/14 A2984 RMK A01 T02120138  RH  062%=      5-min Rain = 0
KLA1 240711Z 13008KT 21/14 A2984 RMK A01 T02120138  RH  063%=      5-min Rain = 0
KLA1 240712Z 12006KT 21/14 A2984 RMK A01 T02120138  RH  063%=      5-min Rain = 0
KLA1 240713Z 12006KT 21/14 A2984 RMK A01 T02120138  RH  063%=      5-min Rain = 0
KLA1 240714Z 14008KT 21/14 A2984 RMK A01 T02110138  RH  063%=      5-min Rain = 0
KLA1 240715Z 13009KT 21/14 A2984 RMK A01 T02110138  RH  063%=      5-min Rain = 0
KLA1 240716Z 14009KT 21/14 A2984 RMK A01 T02120138  RH  063%=      5-min Rain = 0
KLA1 240717Z 14007KT 21/14 A2984 RMK A01 T02120138  RH  063%=      5-min Rain = 0
KLA1 240718Z 14007KT 21/14 A2984 RMK A01 T02110138  RH  063%=      5-min Rain = 0
KLA1 240719Z 13008KT 21/14 A2984 RMK A01 T02110138  RH  063%=      5-min Rain = 0
KLA1 240720Z 13009KT 21/14 A2984 RMK A01 T02110139  RH  063%=      5-min Rain = 0
KLA1 240721Z 13007KT 21/14 A2984 RMK A01 T02110139  RH  063%=      5-min Rain = 0
KLA1 240722Z 13007KT 21/14 A2984 RMK A01 T02100138  RH  063%=      5-min Rain = 0
KLA1 240723Z 13007KT 21/14 A2984 RMK A01 T02110139  RH  063%=      5-min Rain = 0
KLA1 240724Z 13008KT 21/14 A2984 RMK A01 T02100139  RH  064%=      5-min Rain = 0
KLA1 240725Z 12006KT 21/14 A2984 RMK A01 T02100139  RH  064%=      5-min Rain = 0
KLA1 240726Z 12007KT 21/14 A2983 RMK A01 T02100139  RH  064%=      5-min Rain = 0
KLA1 240727Z 13006KT 21/14 A2983 RMK A01 T02100139  RH  064%=      5-min Rain = 0
KLA1 240728Z 13005KT 21/14 A2983 RMK A01 T02100139  RH  064%=      5-min Rain = 0
KLA1 240729Z 13007KT 21/14 A2983 RMK A01 T02100139  RH  064%=      5-min Rain = 0
KLA1 240730Z 13007KT 21/14 A2983 RMK A01 T02100139  RH  064%=      5-min Rain = 0
KLA1 240731Z 14008KT 21/14 A2983 RMK A01 T02090139  RH  064%=      5-min Rain = 0
KLA1 240732Z 13006KT 21/14 A2983 RMK A01 T02100139  RH  064%=      5-min Rain = 0
KLA1 240733Z 13006KT 21/14 A2983 RMK A01 T02100139  RH  064%=      5-min Rain = 0
KLA1 240734Z 13006KT 21/14 A2983 RMK A01 T02090139  RH  064%=      5-min Rain = 0
KLA1 240735Z 14007KT 21/14 A2983 RMK A01 T02100140  RH  064%=      5-min Rain = 0
KLA1 240736Z 14007KT 21/14 A2983 RMK A01 T02090140  RH  064%=      5-min Rain = 0
KLA1 240737Z 13007KT 21/14 A2983 RMK A01 T02090140  RH  065%=      5-min Rain = 0
KLA1 240738Z 12008KT 21/14 A2983 RMK A01 T02100140  RH  065%=      5-min Rain = 0
KLA1 240739Z 13008KT 21/14 A2983 RMK A01 T02090141  RH  065%=      5-min Rain = 0
KLA1 240740Z 12008KT 21/14 A2983 RMK A01 T02100141  RH  065%=      5-min Rain = 0
KLA1 240741Z 14008KT 21/14 A2983 RMK A01 T02100142  RH  065%=      5-min Rain = 0
KLA1 240742Z 14007KT 21/14 A2983 RMK A01 T02100142  RH  065%=      5-min Rain = 0
KLA1 240743Z 13008KT 21/14 A2983 RMK A01 T02100142  RH  065%=      5-min Rain = 0
KLA1 240744Z 13008KT 21/14 A2983 RMK A01 T02100142  RH  065%=      5-min Rain = 0
KLA1 240745Z 13007KT 21/14 A2983 RMK A01 T02100142  RH  065%=      5-min Rain = 0
KLA1 240746Z 13007KT 21/14 A2983 RMK A01 T02100143  RH  065%=      5-min Rain = 0
KLA1 240747Z 13006KT 21/14 A2983 RMK A01 T02100143  RH  065%=      5-min Rain = 0
KLA1 240748Z 13007KT 21/14 A2983 RMK A01 T02100143  RH  066%=      5-min Rain = 0
KLA1 240749Z 13008KT 21/14 A2983 RMK A01 T02100144  RH  066%=      5-min Rain = 0
KLA1 240750Z 13007KT 21/14 A2983 RMK A01 T02100144  RH  066%=      5-min Rain = 0
KLA1 240751Z 13007KT 21/14 A2983 RMK A01 T02110144  RH  066%=      5-min Rain = 0
KLA1 240752Z 13007KT 21/14 A2983 RMK A01 T02100144  RH  066%=      5-min Rain = 0
KLA1 240753Z 12004KT 21/15 A2983 RMK A01 T02110145  RH  066%=      5-min Rain = 0
KLA1 240754Z 12007KT 21/14 A2984 RMK A01 T02100144  RH  066%=      5-min Rain = 0
KLA1 240755Z 12004KT 21/15 A2983 RMK A01 T02100145  RH  066%=      5-min Rain = 0
KLA1 240756Z 14005KT 21/15 A2984 RMK A01 T02100145  RH  067%=      5-min Rain = 0
KLA1 240757Z 13005KT 21/15 A2984 RMK A01 T02100146  RH  067%=      5-min Rain = 0
KLA1 240758Z 12004KT 21/15 A2983 RMK A01 T02100146  RH  067%=      5-min Rain = 0
KLA1 240759Z 12005KT 21/15 A2983 RMK A01 T02090146  RH  067%=      5-min Rain = 0
KLA1 240800Z 12005KT 21/15 A2984 RMK A01 T02090146  RH  067%=      5-min Rain = 0
KLA1 240801Z 12004KT 21/15 A2983 RMK A01 T02090146  RH  067%=      5-min Rain = 0
KLA1 240802Z 14004KT 21/15 A2983 RMK A01 T02090146  RH  067%=      5-min Rain = 0
KLA1 240803Z 13005KT 21/15 A2983 RMK A01 T02090147  RH  067%=      5-min Rain = 0
KLA1 240804Z 12004KT 21/15 A2983 RMK A01 T02090146  RH  067%=      5-min Rain = 0
KLA1 240805Z 13005KT 21/15 A2983 RMK A01 T02090147  RH  068%=      5-min Rain = 0
KLA1 240806Z 12005KT 21/15 A2983 RMK A01 T02080147  RH  068%=      5-min Rain = 0
KLA1 240807Z 12005G10KT 21/15 A2983 RMK A01 T02080147  RH  068%=      5-min Rain = 0
KLA1 240808Z 13009KT 21/15 A2983 RMK A01 T02080148  RH  069%=      5-min Rain = 0
KLA1 240809Z 13007KT 21/15 A2983 RMK A01 T02080150  RH  069%=      5-min Rain = 0
KLA1 240810Z 12005KT 21/15 A2983 RMK A01 T02090149  RH  068%=      5-min Rain = 0
KLA1 240811Z 13006KT 21/15 A2983 RMK A01 T02090149  RH  068%=      5-min Rain = 0
KLA1 240812Z 12005KT 21/15 A2983 RMK A01 T02090149  RH  069%=      5-min Rain = 0
KLA1 240813Z 12003KT 21/15 A2983 RMK A01 T02080148  RH  069%=      5-min Rain = 0
KLA1 240814Z 12005KT 21/15 A2983 RMK A01 T02080148  RH  069%=      5-min Rain = 0
KLA1 240815Z 12005KT 21/15 A2983 RMK A01 T02080149  RH  069%=      5-min Rain = 0
KLA1 240816Z 13006KT 21/15 A2983 RMK A01 T02070149  RH  069%=      5-min Rain = 0
KLA1 240817Z 13006KT 21/15 A2983 RMK A01 T02070150  RH  070%=      5-min Rain = 0
KLA1 240818Z 12005KT 21/15 A2984 RMK A01 T02070150  RH  070%=      5-min Rain = 0
KLA1 240819Z 14005KT 21/15 A2984 RMK A01 T02070150  RH  070%=      5-min Rain = 0
KLA1 240820Z 12004KT 21/15 A2984 RMK A01 T02070150  RH  070%=      5-min Rain = 0
KLA1 240821Z 13006KT 21/15 A2984 RMK A01 T02070150  RH  070%=      5-min Rain = 0
KLA1 240822Z 12006KT 21/15 A2984 RMK A01 T02060151  RH  070%=      5-min Rain = 0
KLA1 240823Z 13006KT 21/15 A2984 RMK A01 T02060151  RH  071%=      5-min Rain = 0
KLA1 240824Z 13007KT 21/15 A2984 RMK A01 T02060152  RH  071%=      5-min Rain = 0
KLA1 240825Z 12004KT 21/15 A2984 RMK A01 T02070152  RH  071%=      5-min Rain = 0
KLA1 240826Z 14005KT 21/15 A2984 RMK A01 T02070151  RH  070%=      5-min Rain = 0
KLA1 240827Z 15005KT 21/15 A2984 RMK A01 T02080153  RH  071%=      5-min Rain = 0
KLA1 240828Z 13005KT 21/15 A2984 RMK A01 T02070153  RH  071%=      5-min Rain = 0
KLA1 240829Z 12006KT 21/15 A2983 RMK A01 T02070153  RH  071%=      5-min Rain = 0
KLA1 240830Z 14008KT 21/15 A2983 RMK A01 T02070153  RH  071%=      5-min Rain = 0
KLA1 240831Z 14007KT 21/15 A2983 RMK A01 T02080154  RH  071%=      5-min Rain = 0
KLA1 240832Z 14006KT 21/15 A2983 RMK A01 T02070153  RH  071%=      5-min Rain = 0
KLA1 240833Z 15008KT 21/15 A2983 RMK A01 T02080154  RH  071%=      5-min Rain = 0
KLA1 240834Z 13005KT 21/15 A2983 RMK A01 T02080154  RH  071%=      5-min Rain = 0
KLA1 240835Z 13006KT 21/15 A2984 RMK A01 T02080154  RH  071%=      5-min Rain = 0
KLA1 240836Z 14008KT 21/15 A2984 RMK A01 T02070154  RH  072%=      5-min Rain = 0
KLA1 240837Z 13006KT 21/15 A2983 RMK A01 T02070154  RH  072%=      5-min Rain = 0
KLA1 240838Z 13006KT 21/15 A2984 RMK A01 T02070154  RH  072%=      5-min Rain = 0
KLA1 240839Z 13006KT 21/15 A2984 RMK A01 T02060154  RH  072%=      5-min Rain = 0
KLA1 240840Z 12006KT 21/15 A2984 RMK A01 T02060154  RH  072%=      5-min Rain = 0
KLA1 240841Z 12006KT 21/15 A2983 RMK A01 T02060154  RH  072%=      5-min Rain = 0
KLA1 240842Z 12007KT 21/15 A2983 RMK A01 T02060154  RH  072%=      5-min Rain = 0
KLA1 240843Z 13007KT 21/16 A2983 RMK A01 T02060155  RH  073%=      5-min Rain = 0
KLA1 240844Z 14008KT 21/15 A2983 RMK A01 T02060154  RH  072%=      5-min Rain = 0
KLA1 240845Z 13005KT 21/16 A2983 RMK A01 T02060155  RH  072%=      5-min Rain = 0
KLA1 240846Z 13005KT 21/15 A2984 RMK A01 T02060154  RH  072%=      5-min Rain = 0
KLA1 240847Z 13005KT 21/16 A2984 RMK A01 T02060155  RH  072%=      5-min Rain = 0
KLA1 240848Z 14004KT 21/16 A2984 RMK A01 T02050155  RH  073%=      5-min Rain = 0
KLA1 240849Z 13005KT 21/15 A2984 RMK A01 T02050154  RH  073%=      5-min Rain = 0
KLA1 240850Z 12005KT 20/16 A2984 RMK A01 T02040155  RH  073%=      5-min Rain = 0
KLA1 240851Z 13005KT 20/16 A2984 RMK A01 T02040155  RH  073%=      5-min Rain = 0
KLA1 240852Z 13007KT 20/16 A2984 RMK A01 T02040155  RH  073%=      5-min Rain = 0
KLA1 240853Z 13005KT 20/16 A2984 RMK A01 T02030155  RH  074%=      5-min Rain = 0
KLA1 240854Z 13006KT 20/16 A2984 RMK A01 T02030155  RH  074%=      5-min Rain = 0
KLA1 240855Z 14006KT 20/16 A2984 RMK A01 T02030155  RH  074%=      5-min Rain = 0
KLA1 240856Z 14006KT 20/16 A2984 RMK A01 T02030155  RH  074%=      5-min Rain = 0
KLA1 240857Z 13005KT 20/16 A2984 RMK A01 T02030155  RH  074%=      5-min Rain = 0
KLA1 240858Z 13006KT 20/16 A2984 RMK A01 T02020155  RH  074%=      5-min Rain = 0
KLA1 240859Z 13007KT 20/16 A2984 RMK A01 T02020155  RH  074%=      5-min Rain = 0
KLA1 240900Z 13009KT 20/16 A2984 RMK A01 T02020155  RH  075%=      5-min Rain = 0
KLA1 240901Z 13007KT 20/16 A2984 RMK A01 T02020156  RH  075%=      5-min Rain = 0
KLA1 240902Z 13006KT 20/16 A2984 RMK A01 T02030156  RH  074%=      5-min Rain = 0
KLA1 240903Z 12007KT 20/16 A2984 RMK A01 T02030156  RH  074%=      5-min Rain = 0
KLA1 240904Z 12006KT 20/16 A2984 RMK A01 T02020156  RH  075%=      5-min Rain = 0
KLA1 240905Z 13006KT 20/16 A2984 RMK A01 T02030156  RH  074%=      5-min Rain = 0
KLA1 240906Z 13007KT 20/16 A2984 RMK A01 T02030156  RH  075%=      5-min Rain = 0
KLA1 240907Z 13007KT 20/16 A2984 RMK A01 T02020156  RH  075%=      5-min Rain = 0
KLA1 240908Z 12005KT 20/16 A2984 RMK A01 T02020156  RH  075%=      5-min Rain = 0
KLA1 240909Z 11006KT 20/16 A2984 RMK A01 T02020156  RH  075%=      5-min Rain = 0
KLA1 240910Z 13007KT 20/16 A2984 RMK A01 T02020157  RH  075%=      5-min Rain = 0
KLA1 240911Z 13007KT 20/16 A2984 RMK A01 T02020157  RH  075%=      5-min Rain = 0
KLA1 240912Z 13007KT 20/16 A2984 RMK A01 T02020157  RH  075%=      5-min Rain = 0
KLA1 240913Z 12006KT 20/16 A2984 RMK A01 T02020157  RH  075%=      5-min Rain = 0
KLA1 240914Z 12006KT 20/16 A2984 RMK A01 T02020157  RH  075%=      5-min Rain = 0
KLA1 240915Z 12006KT 20/16 A2984 RMK A01 T02020157  RH  075%=      5-min Rain = 0
KLA1 240916Z 13006KT 20/16 A2984 RMK A01 T02010157  RH  075%=      5-min Rain = 0
KLA1 240917Z 13006KT 20/16 A2984 RMK A01 T02010157  RH  076%=      5-min Rain = 0
KLA1 240918Z 13007KT 20/16 A2983 RMK A01 T02010157  RH  076%=      5-min Rain = 0
KLA1 240919Z 12008KT 20/16 A2983 RMK A01 T02010157  RH  076%=      5-min Rain = 0
KLA1 240920Z 13007KT 20/16 A2983 RMK A01 T02010157  RH  076%=      5-min Rain = 0
KLA1 240921Z 13008KT 20/16 A2983 RMK A01 T02010157  RH  076%=      5-min Rain = 0
KLA1 240922Z 13007KT 20/16 A2983 RMK A01 T02010158  RH  076%=      5-min Rain = 0
KLA1 240923Z 13009KT 20/16 A2983 RMK A01 T02010158  RH  076%=      5-min Rain = 0
KLA1 240924Z 13008KT 20/16 A2983 RMK A01 T02010158  RH  076%=      5-min Rain = 0
KLA1 240925Z 13007KT 20/16 A2983 RMK A01 T02010158  RH  076%=      5-min Rain = 0
KLA1 240926Z 13007KT 20/16 A2983 RMK A01 T02010158  RH  076%=      5-min Rain = 0
KLA1 240927Z 13007KT 20/16 A2983 RMK A01 T02000158  RH  076%=      5-min Rain = 0
KLA1 240928Z 13008KT 20/16 A2983 RMK A01 T02000158  RH  077%=      5-min Rain = 0
KLA1 240929Z 13009KT 20/16 A2983 RMK A01 T02000158  RH  077%=      5-min Rain = 0
KLA1 240930Z 13007KT 20/16 A2983 RMK A01 T02000158  RH  077%=      5-min Rain = 0
KLA1 240931Z 14009KT 20/16 A2983 RMK A01 T02000158  RH  077%=      5-min Rain = 0
KLA1 240932Z 13008KT 20/16 A2983 RMK A01 T02000158  RH  077%=      5-min Rain = 0
KLA1 240933Z 14008KT 20/16 A2983 RMK A01 T02000159  RH  077%=      5-min Rain = 0
KLA1 240934Z 13008KT 20/16 A2984 RMK A01 T02000159  RH  077%=      5-min Rain = 0
KLA1 240935Z 14009KT 20/16 A2984 RMK A01 T02000159  RH  077%=      5-min Rain = 0
KLA1 240936Z 13008KT 20/16 A2984 RMK A01 T01990158  RH  077%=      5-min Rain = 0
KLA1 240937Z 14006KT 20/16 A2984 RMK A01 T01990159  RH  077%=      5-min Rain = 0
KLA1 240938Z 13007KT 20/16 A2984 RMK A01 T01990159  RH  077%=      5-min Rain = 0
KLA1 240939Z 14009KT 20/16 A2984 RMK A01 T01990159  RH  077%=      5-min Rain = 0
KLA1 240940Z 14010KT 20/16 A2984 RMK A01 T01990159  RH  078%=      5-min Rain = 0
KLA1 240941Z 13008KT 20/16 A2984 RMK A01 T01990159  RH  078%=      5-min Rain = 0
KLA1 240942Z 13008KT 20/16 A2983 RMK A01 T01990158  RH  077%=      5-min Rain = 0
KLA1 240943Z 14008KT 20/16 A2983 RMK A01 T01990158  RH  077%=      5-min Rain = 0
KLA1 240944Z 13007KT 20/16 A2983 RMK A01 T01990158  RH  077%=      5-min Rain = 0
KLA1 240945Z 13008KT 20/16 A2983 RMK A01 T01990159  RH  077%=      5-min Rain = 0
KLA1 240946Z 13011KT 20/16 A2983 RMK A01 T01990159  RH  078%=      5-min Rain = 0
KLA1 240947Z 14011KT 20/16 A2983 RMK A01 T01990158  RH  077%=      5-min Rain = 0
KLA1 240948Z 14012KT 20/16 A2983 RMK A01 T01990158  RH  077%=      5-min Rain = 0
KLA1 240949Z 14010KT 20/16 A2983 RMK A01 T02000158  RH  077%=      5-min Rain = 0
KLA1 240950Z 14010KT 20/16 A2983 RMK A01 T02000158  RH  077%=      5-min Rain = 0
KLA1 240951Z 13007KT 20/16 A2983 RMK A01 T02000159  RH  077%=      5-min Rain = 0
KLA1 240952Z 14009KT 20/16 A2983 RMK A01 T02000158  RH  077%=      5-min Rain = 0
KLA1 240953Z 14009KT 20/16 A2983 RMK A01 T01990158  RH  077%=      5-min Rain = 0
KLA1 240954Z 13008KT 20/16 A2983 RMK A01 T01990158  RH  077%=      5-min Rain = 0
KLA1 240955Z 15010G16KT 20/16 A2983 RMK A01 T01990158  RH  077%=      5-min Rain = 0
KLA1 240956Z 13011KT 20/16 A2983 RMK A01 T01990159  RH  078%=      5-min Rain = 0
KLA1 240957Z 14011KT 20/16 A2983 RMK A01 T01990159  RH  078%=      5-min Rain = 0
KLA1 240958Z 14009KT 20/16 A2984 RMK A01 T01990158  RH  077%=      5-min Rain = 0
KLA1 240959Z 14011KT 20/16 A2984 RMK A01 T01990159  RH  078%=      5-min Rain = 0
KLA1 241000Z 13010KT 20/16 A2983 RMK A01 T01980159  RH  078%=      5-min Rain = 0
KLA1 241001Z 13010KT 20/16 A2983 RMK A01 T01980159  RH  078%=      5-min Rain = 0
KLA1 241002Z 14011KT 20/16 A2983 RMK A01 T01980159  RH  078%=      5-min Rain = 0
KLA1 241003Z 13009KT 20/16 A2983 RMK A01 T01980158  RH  078%=      5-min Rain = 0
KLA1 241004Z 14010G15KT 20/16 A2984 RMK A01 T01980159  RH  078%=      5-min Rain = 0
KLA1 241005Z 13009KT 20/16 A2984 RMK A01 T01980159  RH  078%=      5-min Rain = 0
KLA1 241006Z 14009KT 20/16 A2983 RMK A01 T01970158  RH  078%=      5-min Rain = 0
KLA1 241007Z 14008KT 20/16 A2983 RMK A01 T01970159  RH  078%=      5-min Rain = 0
KLA1 241008Z 13008KT 20/16 A2983 RMK A01 T01970158  RH  078%=      5-min Rain = 0
KLA1 241009Z 14011KT 20/16 A2984 RMK A01 T01970159  RH  078%=      5-min Rain = 0
KLA1 241010Z 14009KT 20/16 A2984 RMK A01 T01980159  RH  078%=      5-min Rain = 0
KLA1 241011Z 14008KT 20/16 A2984 RMK A01 T01980159  RH  078%=      5-min Rain = 0
KLA1 241012Z 15010KT 20/16 A2984 RMK A01 T01980159  RH  078%=      5-min Rain = 0
KLA1 241013Z 14010KT 20/16 A2984 RMK A01 T01980159  RH  078%=      5-min Rain = 0
KLA1 241014Z 13011KT 20/16 A2984 RMK A01 T01970159  RH  078%=      5-min Rain = 0
KLA1 241015Z 14009KT 20/16 A2984 RMK A01 T01980159  RH  078%=      5-min Rain = 0
KLA1 241016Z 13011KT 20/16 A2984 RMK A01 T01980159  RH  078%=      5-min Rain = 0
KLA1 241017Z 14010KT 20/16 A2984 RMK A01 T01980159  RH  078%=      5-min Rain = 0
KLA1 241018Z 13010G15KT 20/16 A2984 RMK A01 T01980159  RH  078%=      5-min Rain = 0
KLA1 241019Z 14009KT 20/16 A2984 RMK A01 T01980159  RH  078%=      5-min Rain = 0
KLA1 241020Z 13007KT 20/16 A2984 RMK A01 T01990159  RH  078%=      5-min Rain = 0
KLA1 241021Z 14007KT 20/16 A2984 RMK A01 T01980159  RH  078%=      5-min Rain = 0
KLA1 241022Z 14007KT 20/16 A2984 RMK A01 T01980159  RH  078%=      5-min Rain = 0
KLA1 241023Z 14007KT 20/16 A2984 RMK A01 T01970159  RH  078%=      5-min Rain = 0
KLA1 241024Z 14007KT 20/16 A2984 RMK A01 T01980159  RH  078%=      5-min Rain = 0
KLA1 241025Z 13004KT 20/16 A2984 RMK A01 T01980159  RH  079%=      5-min Rain = 0
KLA1 241026Z 12007KT 20/16 A2984 RMK A01 T01980160  RH  079%=      5-min Rain = 0
KLA1 241027Z 12005KT 20/16 A2984 RMK A01 T01980160  RH  079%=      5-min Rain = 0
KLA1 241028Z 12009KT 20/16 A2984 RMK A01 T01980160  RH  079%=      5-min Rain = 0
KLA1 241029Z 12008KT 20/16 A2984 RMK A01 T01980160  RH  079%=      5-min Rain = 0
KLA1 241030Z 11007KT 20/16 A2984 RMK A01 T01980160  RH  078%=      5-min Rain = 0
KLA1 241031Z 12007KT 20/16 A2984 RMK A01 T01990160  RH  078%=      5-min Rain = 0
KLA1 241032Z 12008KT 20/16 A2984 RMK A01 T01990160  RH  078%=      5-min Rain = 0
KLA1 241033Z 11009KT 20/16 A2984 RMK A01 T02000160  RH  078%=      5-min Rain = 0
KLA1 241034Z 12007KT 20/16 A2984 RMK A01 T02000160  RH  078%=      5-min Rain = 0
KLA1 241035Z 13006KT 20/16 A2984 RMK A01 T02000160  RH  078%=      5-min Rain = 0
KLA1 241036Z 11008KT 20/16 A2984 RMK A01 T02000160  RH  078%=      5-min Rain = 0
KLA1 241037Z 12008KT 20/16 A2984 RMK A01 T02010161  RH  078%=      5-min Rain = 0
KLA1 241038Z 13008KT 20/16 A2984 RMK A01 T02010161  RH  078%=      5-min Rain = 0
KLA1 241039Z 11006KT 20/16 A2984 RMK A01 T02020162  RH  078%=      5-min Rain = 0
KLA1 241040Z 11006KT 20/16 A2984 RMK A01 T02020162  RH  078%=      5-min Rain = 0
KLA1 241041Z 11007KT 20/16 A2984 RMK A01 T02020162  RH  077%=      5-min Rain = 0
KLA1 241042Z 13006KT 20/16 A2984 RMK A01 T02020161  RH  077%=      5-min Rain = 0
KLA1 241043Z 12007KT 20/16 A2985 RMK A01 T02020162  RH  077%=      5-min Rain = 0
KLA1 241044Z 12007KT 20/16 A2985 RMK A01 T02020162  RH  077%=      5-min Rain = 0
KLA1 241045Z 12005KT 20/16 A2985 RMK A01 T02030162  RH  077%=      5-min Rain = 0
KLA1 241046Z 11006KT 20/16 A2985 RMK A01 T02030163  RH  077%=      5-min Rain = 0
KLA1 241047Z 12005KT 20/16 A2985 RMK A01 T02030163  RH  077%=      5-min Rain = 0
KLA1 241048Z 11005KT 20/16 A2985 RMK A01 T02030163  RH  078%=      5-min Rain = 0
KLA1 241049Z 13009KT 20/17 A2985 RMK A01 T02040166  RH  079%=      5-min Rain = 0
KLA1 241050Z 12007KT 21/17 A2985 RMK A01 T02050167  RH  079%=      5-min Rain = 0
KLA1 241051Z 13006KT 21/17 A2985 RMK A01 T02050166  RH  078%=      5-min Rain = 0
KLA1 241052Z 14006KT 21/17 A2985 RMK A01 T02050166  RH  078%=      5-min Rain = 0
KLA1 241053Z 12007KT 21/17 A2985 RMK A01 T02050168  RH  079%=      5-min Rain = 0
KLA1 241054Z 12007KT 21/17 A2985 RMK A01 T02060168  RH  079%=      5-min Rain = 0
KLA1 241055Z 12006KT 21/17 A2985 RMK A01 T02060167  RH  079%=      5-min Rain = 0
KLA1 241056Z 12006KT 21/17 A2985 RMK A01 T02060167  RH  079%=      5-min Rain = 0
KLA1 241057Z 12007KT 21/17 A2985 RMK A01 T02060168  RH  079%=      5-min Rain = 0
KLA1 241058Z 12005KT 21/17 A2985 RMK A01 T02060169  RH  079%=      5-min Rain = 0
KLA1 241059Z 12005KT 21/17 A2985 RMK A01 T02060169  RH  079%=      5-min Rain = 0
KLA1 241100Z 12006KT 21/17 A2985 RMK A01 T02060169  RH  079%=      5-min Rain = 0
KLA1 241101Z 12007KT 21/17 A2985 RMK A01 T02060169  RH  079%=      5-min Rain = 0
KLA1 241102Z 14010KT 21/17 A2985 RMK A01 T02070170  RH  080%=      5-min Rain = 0
KLA1 241103Z 12008KT 21/17 A2985 RMK A01 T02070171  RH  080%=      5-min Rain = 0
KLA1 241104Z 12009KT 21/17 A2985 RMK A01 T02070171  RH  080%=      5-min Rain = 0
KLA1 241105Z 12008KT 21/17 A2985 RMK A01 T02070171  RH  080%=      5-min Rain = 0
KLA1 241106Z 12009KT 21/17 A2985 RMK A01 T02070172  RH  080%=      5-min Rain = 0
KLA1 241107Z 12009KT 21/17 A2985 RMK A01 T02070173  RH  080%=      5-min Rain = 0
KLA1 241108Z 13009KT 21/17 A2985 RMK A01 T02070173  RH  081%=      5-min Rain = 0
KLA1 241109Z 12009KT 21/17 A2985 RMK A01 T02070173  RH  081%=      5-min Rain = 0
KLA1 241110Z 14006KT 21/17 A2985 RMK A01 T02070173  RH  081%=      5-min Rain = 0
KLA1 241111Z 14006KT 21/17 A2985 RMK A01 T02070173  RH  081%=      5-min Rain = 0
KLA1 241112Z 14005KT 21/17 A2985 RMK A01 T02070173  RH  081%=      5-min Rain = 0
KLA1 241113Z 14004KT 21/17 A2985 RMK A01 T02070174  RH  081%=      5-min Rain = 0
KLA1 241114Z 14005KT 21/17 A2985 RMK A01 T02070174  RH  081%=      5-min Rain = 0
KLA1 241115Z 14005KT 21/17 A2985 RMK A01 T02070174  RH  081%=      5-min Rain = 0
KLA1 241116Z 13007KT 21/18 A2985 RMK A01 T02070175  RH  082%=      5-min Rain = 0
KLA1 241117Z 14006KT 21/18 A2985 RMK A01 T02070175  RH  082%=      5-min Rain = 0
KLA1 241118Z 15006KT 21/18 A2985 RMK A01 T02080176  RH  082%=      5-min Rain = 0
KLA1 241119Z 15006KT 21/18 A2985 RMK A01 T02080176  RH  082%=      5-min Rain = 0
KLA1 241120Z 15005KT 21/18 A2984 RMK A01 T02080176  RH  082%=      5-min Rain = 0
KLA1 241121Z 13006KT 21/18 A2985 RMK A01 T02080176  RH  082%=      5-min Rain = 0
KLA1 241122Z 14005KT 21/18 A2985 RMK A01 T02080176  RH  082%=      5-min Rain = 0
KLA1 241123Z 14006KT 21/18 A2984 RMK A01 T02080177  RH  082%=      5-min Rain = 0
KLA1 241124Z 14006KT 21/18 A2984 RMK A01 T02080177  RH  083%=      5-min Rain = 0
KLA1 241125Z 14006KT 21/18 A2984 RMK A01 T02080177  RH  083%=      5-min Rain = 0
KLA1 241126Z 13006KT 21/18 A2984 RMK A01 T02080178  RH  083%=      5-min Rain = 0
KLA1 241127Z 15007KT 21/18 A2984 RMK A01 T02080178  RH  083%=      5-min Rain = 0
KLA1 241128Z 15007KT 21/18 A2984 RMK A01 T02080178  RH  083%=      5-min Rain = 0
KLA1 241129Z 14006KT 21/18 A2985 RMK A01 T02080178  RH  083%=      5-min Rain = 0
KLA1 241130Z 15006KT 21/18 A2985 RMK A01 T02080178  RH  083%=      5-min Rain = 0
KLA1 241131Z 15006KT 21/18 A2985 RMK A01 T02080179  RH  083%=      5-min Rain = 0
KLA1 241132Z 13005KT 21/18 A2985 RMK A01 T02080179  RH  083%=      5-min Rain = 0
KLA1 241133Z 13005KT 21/18 A2985 RMK A01 T02080178  RH  083%=      5-min Rain = 0
KLA1 241134Z 13005KT 21/18 A2985 RMK A01 T02080178  RH  083%=      5-min Rain = 0
KLA1 241135Z 13005KT 21/18 A2985 RMK A01 T02080179  RH  083%=      5-min Rain = 0
KLA1 241136Z 15006KT 21/18 A2985 RMK A01 T02080179  RH  084%=      5-min Rain = 0
KLA1 241137Z 13005KT 21/18 A2985 RMK A01 T02080179  RH  084%=      5-min Rain = 0
KLA1 241138Z 14006KT 21/18 A2985 RMK A01 T02080179  RH  084%=      5-min Rain = 0
KLA1 241139Z 14007KT 21/18 A2985 RMK A01 T02080180  RH  084%=      5-min Rain = 0
KLA1 241140Z 14006KT 21/18 A2985 RMK A01 T02090180  RH  084%=      5-min Rain = 0
KLA1 241141Z 13007KT 21/18 A2985 RMK A01 T02090180  RH  084%=      5-min Rain = 0
KLA1 241142Z 13009KT 21/18 A2985 RMK A01 T02090181  RH  084%=      5-min Rain = 0
KLA1 241143Z 12006KT 21/18 A2985 RMK A01 T02090181  RH  084%=      5-min Rain = 0
KLA1 241144Z 14005KT 21/18 A2985 RMK A01 T02090180  RH  084%=      5-min Rain = 0
KLA1 241145Z 13006KT 21/18 A2985 RMK A01 T02100181  RH  083%=      5-min Rain = 0
KLA1 241146Z 12007KT 21/18 A2985 RMK A01 T02100181  RH  084%=      5-min Rain = 0
KLA1 241147Z 13005KT 21/18 A2985 RMK A01 T02100182  RH  084%=      5-min Rain = 0
KLA1 241148Z 14006KT 21/18 A2985 RMK A01 T02110182  RH  084%=      5-min Rain = 0
KLA1 241149Z 13008KT 21/18 A2985 RMK A01 T02110182  RH  084%=      5-min Rain = 0
KLA1 241150Z 13007KT 21/18 A2985 RMK A01 T02110183  RH  084%=      5-min Rain = 0
KLA1 241151Z 13004KT 21/18 A2985 RMK A01 T02110182  RH  084%=      5-min Rain = 0
KLA1 241152Z 13006KT 21/18 A2985 RMK A01 T02110182  RH  084%=      5-min Rain = 0
KLA1 241153Z 13008KT 21/18 A2985 RMK A01 T02110182  RH  084%=      5-min Rain = 0
KLA1 241154Z 14006KT 21/18 A2985 RMK A01 T02120183  RH  084%=      5-min Rain = 0
KLA1 241155Z 13006KT 21/18 A2985 RMK A01 T02120183  RH  084%=      5-min Rain = 0
KLA1 241156Z 13007KT 21/18 A2986 RMK A01 T02120184  RH  084%=      5-min Rain = 0
KLA1 241157Z 13009KT 21/18 A2986 RMK A01 T02120184  RH  084%=      5-min Rain = 0
KLA1 241158Z 13008KT 21/18 A2986 RMK A01 T02120184  RH  084%=      5-min Rain = 0
KLA1 241159Z 12008KT 21/19 A2986 RMK A01 T02130185  RH  084%=      5-min Rain = 0
KLA1 241200Z 13009KT 21/19 A2986 RMK A01 T02130185  RH  084%=      5-min Rain = 0
KLA1 241201Z 12007KT 21/19 A2986 RMK A01 T02130185  RH  084%=      5-min Rain = 0
KLA1 241202Z 13009KT 21/19 A2986 RMK A01 T02130185  RH  084%=      5-min Rain = 0
KLA1 241203Z 13008KT 21/19 A2986 RMK A01 T02130186  RH  084%=      5-min Rain = 0
KLA1 241204Z 13007KT 21/19 A2986 RMK A01 T02130186  RH  085%=      5-min Rain = 0
KLA1 241205Z 12009KT 21/19 A2986 RMK A01 T02140187  RH  085%=      5-min Rain = 0
KLA1 241206Z 13007KT 21/19 A2986 RMK A01 T02140187  RH  085%=      5-min Rain = 0
KLA1 241207Z 13009KT 21/19 A2986 RMK A01 T02140187  RH  085%=      5-min Rain = 0
KLA1 241208Z 13007KT 21/19 A2986 RMK A01 T02140188  RH  085%=      5-min Rain = 0
KLA1 241209Z 13009KT 21/19 A2986 RMK A01 T02140187  RH  085%=      5-min Rain = 0
KLA1 241210Z 13010KT 21/19 A2986 RMK A01 T02140188  RH  085%=      5-min Rain = 0
KLA1 241211Z 14010KT 21/19 A2986 RMK A01 T02140188  RH  085%=      5-min Rain = 0
KLA1 241212Z 13010KT 21/19 A2986 RMK A01 T02140188  RH  085%=      5-min Rain = 0
KLA1 241213Z 14011KT 21/19 A2986 RMK A01 T02140189  RH  085%=      5-min Rain = 0
KLA1 241214Z 14010KT 22/19 A2986 RMK A01 T02150189  RH  085%=      5-min Rain = 0
KLA1 241215Z 13009KT 22/19 A2986 RMK A01 T02150189  RH  085%=      5-min Rain = 0
KLA1 241216Z 14007KT 21/19 A2986 RMK A01 T02140189  RH  085%=      5-min Rain = 0
KLA1 241217Z 14009KT 22/19 A2986 RMK A01 T02150190  RH  085%=      5-min Rain = 0
KLA1 241218Z 14008KT 22/19 A2986 RMK A01 T02150190  RH  086%=      5-min Rain = 0
KLA1 241219Z 14010KT 22/19 A2986 RMK A01 T02160191  RH  086%=      5-min Rain = 0
KLA1 241220Z 14009KT 22/19 A2986 RMK A01 T02150190  RH  086%=      5-min Rain = 0
KLA1 241221Z 15010KT 22/19 A2986 RMK A01 T02160191  RH  086%=      5-min Rain = 0
KLA1 241222Z 14008KT 22/19 A2986 RMK A01 T02160191  RH  086%=      5-min Rain = 0
KLA1 241223Z 13009KT 22/19 A2986 RMK A01 T02160192  RH  086%=      5-min Rain = 0
KLA1 241224Z 14011KT 22/19 A2986 RMK A01 T02160192  RH  086%=      5-min Rain = 0
KLA1 241225Z 14012KT 22/19 A2986 RMK A01 T02160192  RH  086%=      5-min Rain = 0
KLA1 241226Z 14010KT 22/19 A2986 RMK A01 T02160192  RH  086%=      5-min Rain = 0
KLA1 241227Z 14010KT 22/19 A2986 RMK A01 T02170193  RH  086%=      5-min Rain = 0
KLA1 241228Z 14010KT 22/19 A2986 RMK A01 T02170193  RH  086%=      5-min Rain = 0
KLA1 241229Z 13007KT 22/19 A2986 RMK A01 T02170194  RH  086%=      5-min Rain = 0
KLA1 241230Z 13009KT 22/19 A2986 RMK A01 T02180194  RH  086%=      5-min Rain = 0
KLA1 241231Z 15010G16KT 22/19 A2986 RMK A01 T02170193  RH  086%=      5-min Rain = 0
KLA1 241232Z 13011KT 22/19 A2986 RMK A01 T02180194  RH  086%=      5-min Rain = 0
KLA1 241233Z 13011KT 22/19 A2986 RMK A01 T02180194  RH  087%=      5-min Rain = 0
KLA1 241234Z 13011KT 22/20 A2986 RMK A01 T02180195  RH  087%=      5-min Rain = 0
KLA1 241235Z 13011KT 22/20 A2986 RMK A01 T02180195  RH  087%=      5-min Rain = 0
KLA1 241236Z 13012G17KT 22/20 A2986 RMK A01 T02180195  RH  087%=      5-min Rain = 0
KLA1 241237Z 13011G17KT 22/20 A2986 RMK A01 T02180195  RH  087%=      5-min Rain = 0
KLA1 241238Z 13014KT 22/20 A2986 RMK A01 T02180195  RH  087%=      5-min Rain = 0
KLA1 241239Z 14014KT 22/20 A2986 RMK A01 T02180196  RH  087%=      5-min Rain = 0
KLA1 241240Z 13012KT 22/20 A2986 RMK A01 T02180196  RH  087%=      5-min Rain = 0
KLA1 241241Z 13013KT 22/20 A2986 RMK A01 T02190196  RH  087%=      5-min Rain = 0
KLA1 241242Z 13013KT 22/20 A2986 RMK A01 T02190196  RH  087%=      5-min Rain = 0
KLA1 241243Z 14013KT 22/20 A2986 RMK A01 T02190197  RH  087%=      5-min Rain = 0
KLA1 241244Z 14012KT 22/20 A2986 RMK A01 T02190197  RH  087%=      5-min Rain = 0
KLA1 241245Z 13011KT 22/20 A2986 RMK A01 T02190197  RH  087%=      5-min Rain = 0
KLA1 241246Z 13013KT 22/20 A2986 RMK A01 T02190197  RH  087%=      5-min Rain = 0
KLA1 241247Z 13015KT 22/20 A2986 RMK A01 T02200197  RH  087%=      5-min Rain = 0
KLA1 241248Z 13014KT 22/20 A2985 RMK A01 T02200198  RH  087%=      5-min Rain = 0
KLA1 241249Z 13012KT 22/20 A2985 RMK A01 T02200198  RH  087%=      5-min Rain = 0
KLA1 241250Z 13010KT 22/20 A2985 RMK A01 T02200198  RH  087%=      5-min Rain = 0
KLA1 241251Z 13014G20KT 22/20 A2985 RMK A01 T02200198  RH  087%=      5-min Rain = 0
KLA1 241252Z 13013KT 22/20 A2985 RMK A01 T02200198  RH  088%=      5-min Rain = 0
KLA1 241253Z 13013KT 22/20 A2985 RMK A01 T02200199  RH  088%=      5-min Rain = 0
KLA1 241254Z 13013G19KT 22/20 A2985 RMK A01 T02200199  RH  088%=      5-min Rain = 0
KLA1 241255Z 13012KT 22/20 A2985 RMK A01 T02200200  RH  088%=      5-min Rain = 0
KLA1 241256Z 13017KT 22/20 A2985 RMK A01 T02200200  RH  089%=      5-min Rain = 0
KLA1 241257Z 13017KT 22/20 A2986 RMK A01 T02200201  RH  089%=      5-min Rain = 0
KLA1 241258Z 13013G20KT 22/20 A2985 RMK A01 T02190201  RH  090%=      5-min Rain = 0
KLA1 241259Z 13016KT 22/20 A2985 RMK A01 T02190202  RH  090%=      5-min Rain = 0
KLA1 241300Z 13016KT 22/20 A2985 RMK A01 T02180202  RH  091%=      5-min Rain = 0
KLA1 241301Z 13014G19KT 22/20 A2985 RMK A01 T02180203  RH  091%=      5-min Rain = 0
KLA1 241302Z 13014KT 22/20 A2985 RMK A01 T02180203  RH  091%=      5-min Rain = 0
KLA1 241303Z 13013KT 22/20 A2986 RMK A01 T02180203  RH  091%=      5-min Rain = 0
KLA1 241304Z 13014KT 22/20 A2986 RMK A01 T02180203  RH  091%=      5-min Rain = 0
KLA1 241305Z 14014KT 22/20 A2986 RMK A01 T02180203  RH  091%=      5-min Rain = 0
KLA1 241306Z 14015G20KT 22/20 A2986 RMK A01 T02180203  RH  091%=      5-min Rain = 0
KLA1 241307Z 13014KT 22/20 A2986 RMK A01 T02180203  RH  091%=      5-min Rain = 0
KLA1 241308Z 14013G19KT 22/20 A2986 RMK A01 T02180203  RH  091%=      5-min Rain = 0
KLA1 241309Z 14014KT 22/20 A2986 RMK A01 T02190203  RH  091%=      5-min Rain = 0
KLA1 241310Z 14010KT 22/20 A2986 RMK A01 T02190203  RH  091%=      5-min Rain = 0
KLA1 241311Z 14010G15KT 22/20 A2986 RMK A01 T02190203  RH  091%=      5-min Rain = 0
KLA1 241312Z 14011G16KT 22/20 A2986 RMK A01 T02190203  RH  091%=      5-min Rain = 0
KLA1 241313Z 14011G16KT 22/20 A2986 RMK A01 T02190203  RH  090%=      5-min Rain = 0
KLA1 241314Z 14013KT 22/20 A2986 RMK A01 T02200203  RH  090%=      5-min Rain = 0
KLA1 241315Z 14011KT 22/20 A2986 RMK A01 T02200203  RH  090%=      5-min Rain = 0
KLA1 241316Z 14012KT 22/20 A2986 RMK A01 T02200203  RH  090%=      5-min Rain = 0
KLA1 241317Z 14011KT 22/20 A2986 RMK A01 T02200203  RH  090%=      5-min Rain = 0
KLA1 241318Z 14012G17KT 22/20 A2986 RMK A01 T02200203  RH  090%=      5-min Rain = 0
KLA1 241319Z 14012KT 22/20 A2986 RMK A01 T02200204  RH  090%=      5-min Rain = 0
KLA1 241320Z 15013KT 22/20 A2986 RMK A01 T02200203  RH  090%=      5-min Rain = 0
KLA1 241321Z 15011KT 22/20 A2986 RMK A01 T02200203  RH  090%=      5-min Rain = 0
KLA1 241322Z 15014KT 22/20 A2986 RMK A01 T02210204  RH  090%=      5-min Rain = 0
KLA1 241323Z 14013KT 22/20 A2986 RMK A01 T02210204  RH  090%=      5-min Rain = 0
KLA1 241324Z 15013KT 22/20 A2986 RMK A01 T02210204  RH  090%=      5-min Rain = 0
KLA1 241325Z 14013KT 22/21 A2986 RMK A01 T02210205  RH  090%=      5-min Rain = 0
KLA1 241326Z 15015KT 22/21 A2986 RMK A01 T02210205  RH  090%=      5-min Rain = 0
KLA1 241327Z 15014KT 22/21 A2986 RMK A01 T02210205  RH  091%=      5-min Rain = 0
KLA1 241328Z 15014KT 22/21 A2986 RMK A01 T02210205  RH  091%=      5-min Rain = 0
KLA1 241329Z 14010KT 22/21 A2986 RMK A01 T02210205  RH  091%=      5-min Rain = 0
KLA1 241330Z 14011KT 22/21 A2986 RMK A01 T02210205  RH  091%=      5-min Rain = 0
KLA1 241331Z 14010KT 22/21 A2986 RMK A01 T02210205  RH  090%=      5-min Rain = 0
KLA1 241332Z 15013KT 22/21 A2986 RMK A01 T02220205  RH  090%=      5-min Rain = 0
KLA1 241333Z 14011KT 22/21 A2986 RMK A01 T02220205  RH  090%=      5-min Rain = 0
KLA1 241334Z 14011KT 22/21 A2986 RMK A01 T02220205  RH  090%=      5-min Rain = 0
KLA1 241335Z 15013KT 22/21 A2986 RMK A01 T02220205  RH  090%=      5-min Rain = 0
KLA1 241336Z 15013G18KT 22/21 A2986 RMK A01 T02220205  RH  090%=      5-min Rain = 0
KLA1 241337Z 15010KT 22/21 A2986 RMK A01 T02220205  RH  090%=      5-min Rain = 0
KLA1 241338Z 15012KT 22/21 A2986 RMK A01 T02220205  RH  090%=      5-min Rain = 0
KLA1 241339Z 15010KT 22/21 A2986 RMK A01 T02220206  RH  090%=      5-min Rain = 0
KLA1 241340Z 14010G15KT 22/21 A2986 RMK A01 T02220206  RH  090%=      5-min Rain = 0
KLA1 241341Z 14013KT 22/21 A2986 RMK A01 T02220206  RH  090%=      5-min Rain = 0
KLA1 241342Z 14015KT 22/21 A2986 RMK A01 T02220205  RH  090%=      5-min Rain = 0
KLA1 241343Z 14013KT 22/21 A2986 RMK A01 T02220206  RH  090%=      5-min Rain = 0
KLA1 241344Z 15011KT 22/21 A2986 RMK A01 T02230206  RH  090%=      5-min Rain = 0
KLA1 241345Z 15010G15KT 22/21 A2986 RMK A01 T02220206  RH  091%=      5-min Rain = 0
KLA1 241346Z 15013KT 22/21 A2986 RMK A01 T02230207  RH  091%=      5-min Rain = 0
KLA1 241347Z 15011KT 22/21 A2986 RMK A01 T02220206  RH  091%=      5-min Rain = 0
KLA1 241348Z 14012KT 22/21 A2986 RMK A01 T02220206  RH  091%=      5-min Rain = 0
KLA1 241349Z 16010G15KT 22/21 A2986 RMK A01 T02230206  RH  090%=      5-min Rain = 0
KLA1 241350Z 16012G17KT 22/21 A2985 RMK A01 T02230206  RH  090%=      5-min Rain = 0
KLA1 241351Z 15011KT 22/21 A2986 RMK A01 T02240206  RH  090%=      5-min Rain = 0
KLA1 241352Z 15015KT 22/21 A2986 RMK A01 T02240206  RH  090%=      5-min Rain = 0
KLA1 241353Z 14012KT 22/21 A2986 RMK A01 T02240206  RH  090%=      5-min Rain = 0
KLA1 241354Z 14010KT 22/21 A2986 RMK A01 T02240207  RH  090%=      5-min Rain = 0
KLA1 241355Z 14012KT 22/21 A2986 RMK A01 T02240206  RH  090%=      5-min Rain = 0
KLA1 241356Z 15010KT 22/21 A2986 RMK A01 T02240206  RH  090%=      5-min Rain = 0
KLA1 241357Z 15011KT 22/21 A2986 RMK A01 T02240207  RH  090%=      5-min Rain = 0
KLA1 241358Z 14010KT 22/21 A2986 RMK A01 T02240206  RH  090%=      5-min Rain = 0
KLA1 241359Z 15010KT 23/21 A2986 RMK A01 T02250206  RH  089%=      5-min Rain = 0
KLA1 241400Z 14012KT 23/21 A2986 RMK A01 T02250206  RH  089%=      5-min Rain = 0
KLA1 241401Z 14012KT 23/21 A2986 RMK A01 T02250206  RH  089%=      5-min Rain = 0
KLA1 241402Z 14011KT 23/21 A2986 RMK A01 T02250206  RH  089%=      5-min Rain = 0
KLA1 241403Z 14011KT 23/21 A2986 RMK A01 T02250206  RH  089%=      5-min Rain = 0
KLA1 241404Z 14014KT 23/21 A2986 RMK A01 T02260206  RH  089%=      5-min Rain = 0
KLA1 241405Z 15014KT 23/21 A2986 RMK A01 T02260206  RH  088%=      5-min Rain = 0
KLA1 241406Z 14011KT 23/21 A2986 RMK A01 T02260206  RH  088%=      5-min Rain = 0
KLA1 241407Z 15013KT 23/21 A2986 RMK A01 T02260206  RH  088%=      5-min Rain = 0
KLA1 241408Z 14011KT 23/21 A2986 RMK A01 T02260206  RH  088%=      5-min Rain = 0
KLA1 241409Z 15011KT 23/21 A2986 RMK A01 T02260206  RH  088%=      5-min Rain = 0
KLA1 241410Z 15012G17KT 23/21 A2986 RMK A01 T02270206  RH  088%=      5-min Rain = 0
KLA1 241411Z 14011G16KT 23/21 A2986 RMK A01 T02270206  RH  088%=      5-min Rain = 0
KLA1 241412Z 14012KT 23/21 A2986 RMK A01 T02270206  RH  088%=      5-min Rain = 0
KLA1 241413Z 14010KT 23/21 A2986 RMK A01 T02270206  RH  088%=      5-min Rain = 0
KLA1 241414Z 15012KT 23/21 A2986 RMK A01 T02280206  RH  087%=      5-min Rain = 0
KLA1 241415Z 15013G18KT 23/21 A2986 RMK A01 T02280205  RH  087%=      5-min Rain = 0
KLA1 241416Z 14013KT 23/21 A2986 RMK A01 T02290206  RH  087%=      5-min Rain = 0
KLA1 241417Z 15012G17KT 23/21 A2986 RMK A01 T02290205  RH  086%=      5-min Rain = 0
KLA1 241418Z 16013KT 23/21 A2986 RMK A01 T02290205  RH  086%=      5-min Rain = 0
KLA1 241419Z 14014KT 23/21 A2986 RMK A01 T02290205  RH  086%=      5-min Rain = 0
KLA1 241420Z 14011KT 23/21 A2986 RMK A01 T02290205  RH  086%=      5-min Rain = 0
KLA1 241421Z 14014G20KT 23/21 A2986 RMK A01 T02290205  RH  086%=      5-min Rain = 0
KLA1 241422Z 14011G16KT 23/21 A2986 RMK A01 T02300205  RH  086%=      5-min Rain = 0
KLA1 241423Z 14015G22KT 23/21 A2986 RMK A01 T02300205  RH  086%=      5-min Rain = 0
KLA1 241424Z 14013KT 23/21 A2986 RMK A01 T02310205  RH  085%=      5-min Rain = 0
KLA1 241425Z 14013KT 23/21 A2986 RMK A01 T02310205  RH  085%=      5-min Rain = 0
KLA1 241426Z 14012KT 23/21 A2986 RMK A01 T02310205  RH  085%=      5-min Rain = 0
KLA1 241427Z 14011KT 23/21 A2986 RMK A01 T02320205  RH  085%=      5-min Rain = 0
KLA1 241428Z 14013KT 23/21 A2986 RMK A01 T02320205  RH  085%=      5-min Rain = 0
KLA1 241429Z 14012KT 23/21 A2986 RMK A01 T02320205  RH  085%=      5-min Rain = 0
KLA1 241430Z 15014KT 23/21 A2986 RMK A01 T02320205  RH  085%=      5-min Rain = 0
KLA1 241431Z 15011KT 23/21 A2986 RMK A01 T02320205  RH  085%=      5-min Rain = 0
KLA1 241432Z 15010KT 23/21 A2986 RMK A01 T02330206  RH  085%=      5-min Rain = 0
KLA1 241433Z 14013KT 23/21 A2986 RMK A01 T02340206  RH  084%=      5-min Rain = 0
KLA1 241434Z 15014KT 24/21 A2986 RMK A01 T02350205  RH  084%=      5-min Rain = 0
KLA1 241435Z 15014KT 23/21 A2986 RMK A01 T02340205  RH  084%=      5-min Rain = 0
KLA1 241436Z 14016KT 24/21 A2986 RMK A01 T02350205  RH  083%=      5-min Rain = 0
KLA1 241437Z 13014KT 24/21 A2986 RMK A01 T02350205  RH  083%=      5-min Rain = 0
KLA1 241438Z 14012KT 24/21 A2986 RMK A01 T02350205  RH  083%=      5-min Rain = 0
KLA1 241439Z 14013KT 24/21 A2986 RMK A01 T02360205  RH  083%=      5-min Rain = 0
KLA1 241440Z 14014KT 24/21 A2986 RMK A01 T02370205  RH  082%=      5-min Rain = 0
KLA1 241441Z 15014KT 24/21 A2986 RMK A01 T02370205  RH  082%=      5-min Rain = 0
KLA1 241442Z 14014KT 24/21 A2986 RMK A01 T02370205  RH  082%=      5-min Rain = 0
KLA1 241443Z 14011KT 24/21 A2986 RMK A01 T02370205  RH  082%=      5-min Rain = 0
KLA1 241444Z 14012KT 24/21 A2986 RMK A01 T02370205  RH  082%=      5-min Rain = 0
KLA1 241445Z 15012KT 24/21 A2985 RMK A01 T02370205  RH  082%=      5-min Rain = 0
KLA1 241446Z 14016KT 24/21 A2986 RMK A01 T02380205  RH  082%=      5-min Rain = 0
KLA1 241447Z 15017KT 24/21 A2986 RMK A01 T02390205  RH  081%=      5-min Rain = 0
KLA1 241448Z 15015KT 24/21 A2985 RMK A01 T02390205  RH  081%=      5-min Rain = 0
KLA1 241449Z 14012KT 24/21 A2986 RMK A01 T02390205  RH  081%=      5-min Rain = 0
KLA1 241450Z 15012KT 24/21 A2986 RMK A01 T02400205  RH  081%=      5-min Rain = 0
KLA1 241451Z 14012KT 24/21 A2986 RMK A01 T02400205  RH  081%=      5-min Rain = 0
KLA1 241452Z 14011KT 24/21 A2986 RMK A01 T02410206  RH  081%=      5-min Rain = 0
KLA1 241453Z 15015KT 24/21 A2985 RMK A01 T02420206  RH  080%=      5-min Rain = 0
KLA1 241454Z 15015KT 24/21 A2986 RMK A01 T02420206  RH  080%=      5-min Rain = 0
KLA1 241455Z 15015KT 24/21 A2986 RMK A01 T02410205  RH  080%=      5-min Rain = 0
KLA1 241456Z 15012KT 24/21 A2986 RMK A01 T02420205  RH  080%=      5-min Rain = 0
KLA1 241457Z 15011KT 24/21 A2986 RMK A01 T02420205  RH  080%=      5-min Rain = 0
KLA1 241458Z 15012G17KT 24/21 A2986 RMK A01 T02430205  RH  080%=      5-min Rain = 0
KLA1 241459Z 15014KT 24/20 A2985 RMK A01 T02430204  RH  079%=      5-min Rain = 0
KLA1 241500Z 16014G19KT 24/21 A2985 RMK A01 T02430205  RH  079%=      5-min Rain = 0
KLA1 241501Z 15013KT 24/21 A2986 RMK A01 T02430205  RH  079%=      5-min Rain = 0
KLA1 241502Z 15012KT 24/21 A2986 RMK A01 T02440205  RH  079%=      5-min Rain = 0
KLA1 241503Z 15016KT 25/21 A2985 RMK A01 T02450205  RH  078%=      5-min Rain = 0
KLA1 241504Z 15011KT 25/21 A2985 RMK A01 T02450205  RH  078%=      5-min Rain = 0
KLA1 241505Z 15014G19KT 25/21 A2985 RMK A01 T02460205  RH  078%=      5-min Rain = 0
KLA1 241506Z 15012KT 25/21 A2986 RMK A01 T02460205  RH  078%=      5-min Rain = 0
KLA1 241507Z 14013KT 25/21 A2986 RMK A01 T02470205  RH  077%=      5-min Rain = 0
KLA1 241508Z 14016KT 25/21 A2986 RMK A01 T02470205  RH  077%=      5-min Rain = 0
KLA1 241509Z 14014KT 25/21 A2986 RMK A01 T02470205  RH  078%=      5-min Rain = 0
KLA1 241510Z 14013G19KT 25/21 A2985 RMK A01 T02460205  RH  078%=      5-min Rain = 0
KLA1 241511Z 15013KT 25/20 A2986 RMK A01 T02460204  RH  077%=      5-min Rain = 0
KLA1 241512Z 15011KT 25/20 A2986 RMK A01 T02470204  RH  077%=      5-min Rain = 0
KLA1 241513Z 14013KT 25/21 A2985 RMK A01 T02480205  RH  077%=      5-min Rain = 0
KLA1 241514Z 14012KT 25/21 A2986 RMK A01 T02490205  RH  077%=      5-min Rain = 0
KLA1 241515Z 16012KT 25/21 A2985 RMK A01 T02490205  RH  076%=      5-min Rain = 0
KLA1 241516Z 16012G17KT 25/21 A2985 RMK A01 T02500205  RH  076%=      5-min Rain = 0
KLA1 241517Z 16010KT 25/20 A2985 RMK A01 T02500204  RH  076%=      5-min Rain = 0
KLA1 241518Z 15012KT 25/21 A2985 RMK A01 T02500205  RH  076%=      5-min Rain = 0
KLA1 241519Z 14012KT 25/21 A2985 RMK A01 T02510205  RH  075%=      5-min Rain = 0
KLA1 241520Z 14011KT 25/21 A2985 RMK A01 T02520205  RH  075%=      5-min Rain = 0
KLA1 241521Z 15012KT 25/21 A2985 RMK A01 T02520205  RH  075%=      5-min Rain = 0
KLA1 241522Z 15013KT 25/21 A2985 RMK A01 T02530205  RH  074%=      5-min Rain = 0
KLA1 241523Z 15015KT 25/20 A2985 RMK A01 T02530204  RH  074%=      5-min Rain = 0
KLA1 241524Z 16015KT 25/21 A2985 RMK A01 T02540205  RH  074%=      5-min Rain = 0
KLA1 241525Z 15012KT 26/21 A2985 RMK A01 T02560205  RH  073%=      5-min Rain = 0
KLA1 241526Z 15013KT 26/21 A2985 RMK A01 T02560205  RH  073%=      5-min Rain = 0
KLA1 241527Z 15014KT 26/21 A2985 RMK A01 T02570205  RH  073%=      5-min Rain = 0
KLA1 241528Z 15011KT 26/21 A2985 RMK A01 T02560205  RH  073%=      5-min Rain = 0
KLA1 241529Z 14012KT 26/21 A2985 RMK A01 T02570206  RH  073%=      5-min Rain = 0
KLA1 241530Z 14011G16KT 26/21 A2985 RMK A01 T02580205  RH  073%=      5-min Rain = 0
KLA1 241531Z 16010KT 26/21 A2985 RMK A01 T02580205  RH  073%=      5-min Rain = 0
KLA1 241532Z 16011KT 26/20 A2985 RMK A01 T02590204  RH  072%=      5-min Rain = 0
KLA1 241533Z 17013KT 26/20 A2985 RMK A01 T02590204  RH  071%=      5-min Rain = 0
KLA1 241534Z 15010KT 26/20 A2985 RMK A01 T02580203  RH  072%=      5-min Rain = 0
KLA1 241535Z 16013G18KT 26/20 A2985 RMK A01 T02570204  RH  072%=      5-min Rain = 0
KLA1 241536Z 15014KT 26/20 A2985 RMK A01 T02580204  RH  072%=      5-min Rain = 0
KLA1 241537Z 16012KT 26/20 A2985 RMK A01 T02580204  RH  072%=      5-min Rain = 0
KLA1 241538Z 17011KT 26/20 A2985 RMK A01 T02590204  RH  072%=      5-min Rain = 0
KLA1 241539Z 16009KT 26/21 A2985 RMK A01 T02590205  RH  072%=      5-min Rain = 0
KLA1 241540Z 16011KT 26/21 A2985 RMK A01 T02620205  RH  071%=      5-min Rain = 0
KLA1 241541Z 17012G17KT 26/20 A2985 RMK A01 T02620203  RH  070%=      5-min Rain = 0
KLA1 241542Z 18009KT 26/20 A2985 RMK A01 T02620204  RH  070%=      5-min Rain = 0
KLA1 241543Z 18014KT 26/20 A2985 RMK A01 T02640204  RH  070%=      5-min Rain = 0
KLA1 241544Z 18015KT 26/20 A2985 RMK A01 T02640204  RH  069%=      5-min Rain = 0
KLA1 241545Z 17016KT 26/20 A2985 RMK A01 T02630204  RH  070%=      5-min Rain = 0
KLA1 241546Z 17015KT 26/20 A2985 RMK A01 T02620203  RH  070%=      5-min Rain = 0
KLA1 241547Z 18013KT 26/20 A2985 RMK A01 T02610203  RH  070%=      5-min Rain = 0
KLA1 241548Z 18010G15KT 26/20 A2985 RMK A01 T02610203  RH  070%=      5-min Rain = 0
KLA1 241549Z 16013G18KT 26/20 A2985 RMK A01 T02630203  RH  069%=      5-min Rain = 0
KLA1 241550Z 15014G19KT 26/20 A2985 RMK A01 T02630202  RH  069%=      5-min Rain = 0
KLA1 241551Z 16012KT 26/20 A2985 RMK A01 T02640203  RH  069%=      5-min Rain = 0
KLA1 241552Z 17010KT 26/20 A2985 RMK A01 T02640204  RH  070%=      5-min Rain = 0
KLA1 241553Z 16010KT 27/21 A2985 RMK A01 T02680206  RH  069%=      5-min Rain = 0
KLA1 241554Z 16011KT 27/21 A2985 RMK A01 T02720205  RH  067%=      5-min Rain = 0
KLA1 241555Z 15015KT 27/21 A2985 RMK A01 T02740206  RH  066%=      5-min Rain = 0
KLA1 241556Z 14013G18KT 28/21 A2985 RMK A01 T02760205  RH  065%=      5-min Rain = 0
KLA1 241557Z 15016KT 28/21 A2985 RMK A01 T02770205  RH  065%=      5-min Rain = 0
KLA1 241558Z 15013G18KT 28/20 A2985 RMK A01 T02770204  RH  064%=      5-min Rain = 0
KLA1 241559Z 15011KT 28/21 A2985 RMK A01 T02760205  RH  065%=      5-min Rain = 0
KLA1 241600Z 16012KT 28/20 A2985 RMK A01 T02770204  RH  065%=      5-min Rain = 0
KLA1 241601Z 17012KT 28/20 A2985 RMK A01 T02770204  RH  064%=      5-min Rain = 0
KLA1 241602Z 17011KT 28/20 A2985 RMK A01 T02780204  RH  064%=      5-min Rain = 0
KLA1 241603Z 17010KT 28/21 A2985 RMK A01 T02780205  RH  064%=      5-min Rain = 0
KLA1 241604Z 18010KT 28/21 A2985 RMK A01 T02770205  RH  065%=      5-min Rain = 0
KLA1 241605Z 17009KT 28/21 A2985 RMK A01 T02760206  RH  065%=      5-min Rain = 0
KLA1 241606Z 16010KT 28/21 A2985 RMK A01 T02800206  RH  064%=      5-min Rain = 0
KLA1 241607Z 15011KT 28/21 A2985 RMK A01 T02800205  RH  064%=      5-min Rain = 0
KLA1 241608Z 15016KT 28/21 A2985 RMK A01 T02810205  RH  063%=      5-min Rain = 0
KLA1 241609Z 15013KT 28/21 A2985 RMK A01 T02800205  RH  064%=      5-min Rain = 0
KLA1 241610Z 16015KT 28/21 A2985 RMK A01 T02800205  RH  064%=      5-min Rain = 0
KLA1 241611Z 14012KT 28/21 A2985 RMK A01 T02800206  RH  064%=      5-min Rain = 0
KLA1 241612Z 14011KT 28/21 A2985 RMK A01 T02840207  RH  063%=      5-min Rain = 0
KLA1 241613Z 15011KT 29/21 A2985 RMK A01 T02880207  RH  062%=      5-min Rain = 0
KLA1 241614Z 15013KT 29/21 A2984 RMK A01 T02900206  RH  060%=      5-min Rain = 0
KLA1 241615Z 15016KT 29/21 A2985 RMK A01 T02900206  RH  061%=      5-min Rain = 0
KLA1 241616Z 14014KT 29/21 A2985 RMK A01 T02850205  RH  062%=      5-min Rain = 0
KLA1 241617Z 15013KT 28/21 A2984 RMK A01 T02830205  RH  063%=      5-min Rain = 0
KLA1 241618Z 15014G19KT 28/20 A2985 RMK A01 T02830204  RH  062%=      5-min Rain = 0
KLA1 241619Z 15012KT 29/21 A2985 RMK A01 T02850205  RH  062%=      5-min Rain = 0
KLA1 241620Z 15012KT 29/21 A2985 RMK A01 T02870205  RH  061%=      5-min Rain = 0
KLA1 241621Z 16012KT 29/20 A2985 RMK A01 T02870203  RH  060%=      5-min Rain = 0
KLA1 241622Z 16012G17KT 29/20 A2985 RMK A01 T02870204  RH  061%=      5-min Rain = 0
KLA1 241623Z 16013KT 29/20 A2985 RMK A01 T02860203  RH  061%=      5-min Rain = 0
KLA1 241624Z 15012KT 28/20 A2985 RMK A01 T02810203  RH  062%=      5-min Rain = 0
KLA1 241625Z 16011KT 28/20 A2985 RMK A01 T02790204  RH  064%=      5-min Rain = 0
KLA1 241626Z 16010KT 28/20 A2984 RMK A01 T02770204  RH  064%=      5-min Rain = 0
KLA1 241627Z 15011KT 28/20 A2984 RMK A01 T02750203  RH  065%=      5-min Rain = 0
KLA1 241628Z 16012KT 27/20 A2984 RMK A01 T02740203  RH  065%=      5-min Rain = 0
KLA1 241629Z 17010KT 28/20 A2984 RMK A01 T02750204  RH  065%=      5-min Rain = 0
KLA1 241630Z 16009KT 28/20 A2984 RMK A01 T02760204  RH  065%=      5-min Rain = 0
KLA1 241631Z 14010KT 28/20 A2984 RMK A01 T02770204  RH  064%=      5-min Rain = 0
KLA1 241632Z 16009KT 28/21 A2984 RMK A01 T02800206  RH  064%=      5-min Rain = 0
KLA1 241633Z 16012KT 28/21 A2984 RMK A01 T02830205  RH  062%=      5-min Rain = 0
KLA1 241634Z 15011KT 28/20 A2984 RMK A01 T02800203  RH  063%=      5-min Rain = 0
KLA1 241635Z 16009KT 28/20 A2984 RMK A01 T02780204  RH  064%=      5-min Rain = 0
KLA1 241636Z 17009KT 28/20 A2984 RMK A01 T02770204  RH  064%=      5-min Rain = 0
KLA1 241637Z 15008KT 28/20 A2984 RMK A01 T02760204  RH  065%=      5-min Rain = 0
KLA1 241638Z 16007KT 28/20 A2984 RMK A01 T02760204  RH  065%=      5-min Rain = 0
KLA1 241639Z 18006KT 28/20 A2984 RMK A01 T02770204  RH  065%=      5-min Rain = 0
KLA1 241640Z 16010KT 28/21 A2984 RMK A01 T02770205  RH  065%=      5-min Rain = 0
KLA1 241641Z 17010KT 28/20 A2984 RMK A01 T02770203  RH  064%=      5-min Rain = 0
KLA1 241642Z 18011KT 28/20 A2984 RMK A01 T02780203  RH  064%=      5-min Rain = 0
KLA1 241643Z 18010KT 28/20 A2984 RMK A01 T02780203  RH  064%=      5-min Rain = 0
KLA1 241644Z 18009KT 28/20 A2984 RMK A01 T02790202  RH  063%=      5-min Rain = 0
KLA1 241645Z 18008KT 28/20 A2984 RMK A01 T02840204  RH  062%=      5-min Rain = 0
KLA1 241646Z 18012KT 29/20 A2984 RMK A01 T02900204  RH  060%=      5-min Rain = 0
KLA1 241647Z 18009KT 29/21 A2984 RMK A01 T02910205  RH  060%=      5-min Rain = 0
KLA1 241648Z 19010KT 29/20 A2984 RMK A01 T02920204  RH  059%=      5-min Rain = 0
KLA1 241649Z 18009KT 29/20 A2984 RMK A01 T02910204  RH  059%=      5-min Rain = 0
KLA1 241650Z 18008KT 29/20 A2984 RMK A01 T02900203  RH  060%=      5-min Rain = 0
KLA1 241651Z 17010KT 29/20 A2984 RMK A01 T02890202  RH  059%=      5-min Rain = 0
KLA1 241652Z 17010KT 29/20 A2984 RMK A01 T02880201  RH  059%=      5-min Rain = 0
KLA1 241653Z 17010KT 29/20 A2984 RMK A01 T02870202  RH  060%=      5-min Rain = 0
KLA1 241654Z 18010KT 29/20 A2984 RMK A01 T02900204  RH  060%=      5-min Rain = 0
KLA1 241655Z 19008KT 29/21 A2984 RMK A01 T02920205  RH  059%=      5-min Rain = 0
KLA1 241656Z 19010KT 29/21 A2983 RMK A01 T02940205  RH  059%=      5-min Rain = 0
KLA1 241657Z 18012KT 30/21 A2983 RMK A01 T02950205  RH  059%=      5-min Rain = 0
KLA1 241658Z 16010KT 30/21 A2983 RMK A01 T02950205  RH  058%=      5-min Rain = 0
KLA1 241659Z 18010KT 30/21 A2983 RMK A01 T02950205  RH  059%=      5-min Rain = 0
KLA1 241700Z 19010KT 30/20 A2983 RMK A01 T02980203  RH  057%=      5-min Rain = 0
KLA1 241701Z 17008KT 30/20 A2983 RMK A01 T03000204  RH  056%=      5-min Rain = 0
KLA1 241702Z 18009G14KT 30/20 A2983 RMK A01 T03020204  RH  056%=      5-min Rain = 0
KLA1 241703Z 15009KT 30/21 A2983 RMK A01 T03040207  RH  056%=      5-min Rain = 0
KLA1 241704Z 17009G14KT 31/21 A2983 RMK A01 T03070207  RH  055%=      5-min Rain = 0
KLA1 241705Z 16008KT 31/20 A2983 RMK A01 T03080204  RH  054%=      5-min Rain = 0
KLA1 241706Z 15011KT 30/21 A2983 RMK A01 T03030205  RH  056%=      5-min Rain = 0
KLA1 241707Z 15010KT 30/21 A2983 RMK A01 T03020205  RH  056%=      5-min Rain = 0
KLA1 241708Z 17008KT 30/21 A2983 RMK A01 T03020205  RH  056%=      5-min Rain = 0
KLA1 241709Z 17010G15KT 30/20 A2983 RMK A01 T03010204  RH  056%=      5-min Rain = 0
KLA1 241710Z 16011KT 30/20 A2983 RMK A01 T03020199  RH  054%=      5-min Rain = 0
KLA1 241711Z 17012KT 30/20 A2983 RMK A01 T03030202  RH  055%=      5-min Rain = 0
KLA1 241712Z 17008G13KT 30/20 A2983 RMK A01 T03030202  RH  055%=      5-min Rain = 0
KLA1 241713Z 18008KT 30/20 A2983 RMK A01 T03010202  RH  055%=      5-min Rain = 0
KLA1 241714Z 18011KT 30/20 A2984 RMK A01 T03010201  RH  055%=      5-min Rain = 0
KLA1 241715Z 17008KT 30/20 A2984 RMK A01 T03020202  RH  055%=      5-min Rain = 0
KLA1 241716Z 19012KT 30/20 A2984 RMK A01 T03020204  RH  056%=      5-min Rain = 0
KLA1 241717Z 18014KT 30/21 A2984 RMK A01 T03040205  RH  055%=      5-min Rain = 0
KLA1 241718Z 16011KT 30/21 A2984 RMK A01 T03030205  RH  056%=      5-min Rain = 0
KLA1 241719Z 19012KT 30/20 A2984 RMK A01 T03020200  RH  055%=      5-min Rain = 0
KLA1 241720Z 19013G18KT 30/20 A2984 RMK A01 T03020198  RH  054%=      5-min Rain = 0
KLA1 241721Z 18012KT 31/20 A2983 RMK A01 T03050201  RH  054%=      5-min Rain = 0
KLA1 241722Z 18009G15KT 31/20 A2983 RMK A01 T03060203  RH  054%=      5-min Rain = 0
KLA1 241723Z 17012KT 31/20 A2983 RMK A01 T03080204  RH  054%=      5-min Rain = 0
KLA1 241724Z 18007KT 31/21 A2983 RMK A01 T03070205  RH  055%=      5-min Rain = 0
KLA1 241725Z 14008KT 31/21 A2983 RMK A01 T03080205  RH  054%=      5-min Rain = 0
KLA1 241726Z 16012KT 31/21 A2983 RMK A01 T03080205  RH  054%=      5-min Rain = 0
KLA1 241727Z 18013KT 30/20 A2983 RMK A01 T03040204  RH  055%=      5-min Rain = 0
KLA1 241728Z 18015KT 30/20 A2983 RMK A01 T02980203  RH  057%=      5-min Rain = 0
KLA1 241729Z 17012KT 30/20 A2983 RMK A01 T02950202  RH  057%=      5-min Rain = 0
KLA1 241730Z 18012KT 29/20 A2983 RMK A01 T02930201  RH  058%=      5-min Rain = 0
KLA1 241731Z 17012KT 29/20 A2984 RMK A01 T02900200  RH  058%=      5-min Rain = 0
KLA1 241732Z 16012KT 29/20 A2984 RMK A01 T02880198  RH  058%=      5-min Rain = 0
KLA1 241733Z 15011KT 29/20 A2984 RMK A01 T02880196  RH  058%=      5-min Rain = 0
KLA1 241734Z 15011KT 29/20 A2984 RMK A01 T02880197  RH  058%=      5-min Rain = 0
KLA1 241735Z 15013KT 29/20 A2984 RMK A01 T02880200  RH  059%=      5-min Rain = 0
KLA1 241736Z 14010KT 29/20 A2984 RMK A01 T02870200  RH  060%=      5-min Rain = 0
KLA1 241737Z 14010KT 29/20 A2984 RMK A01 T02860200  RH  060%=      5-min Rain = 0
KLA1 241738Z 15012KT 29/20 A2984 RMK A01 T02870200  RH  060%=      5-min Rain = 0
KLA1 241739Z 14010KT 29/20 A2984 RMK A01 T02870200  RH  059%=      5-min Rain = 0
KLA1 241740Z 14011KT 29/20 A2984 RMK A01 T02880200  RH  059%=      5-min Rain = 0
KLA1 241741Z 14012KT 29/20 A2984 RMK A01 T02870200  RH  059%=      5-min Rain = 0
KLA1 241742Z 15011KT 29/20 A2984 RMK A01 T02860200  RH  060%=      5-min Rain = 0
KLA1 241743Z 16011KT 29/20 A2984 RMK A01 T02860201  RH  060%=      5-min Rain = 0
KLA1 241744Z 16013KT 29/20 A2984 RMK A01 T02860202  RH  060%=      5-min Rain = 0
KLA1 241745Z 16012KT 29/20 A2984 RMK A01 T02850203  RH  061%=      5-min Rain = 0
KLA1 241746Z 16012KT 28/20 A2984 RMK A01 T02830203  RH  062%=      5-min Rain = 0
KLA1 241747Z 18014KT 28/20 A2984 RMK A01 T02830204  RH  062%=      5-min Rain = 0
KLA1 241748Z 18013KT 28/20 A2984 RMK A01 T02810203  RH  063%=      5-min Rain = 0
KLA1 241749Z 18012KT 28/20 A2984 RMK A01 T02800202  RH  062%=      5-min Rain = 0
KLA1 241750Z 16010KT 28/20 A2984 RMK A01 T02800200  RH  062%=      5-min Rain = 0
KLA1 241751Z 15012KT 28/20 A2984 RMK A01 T02790201  RH  062%=      5-min Rain = 0
KLA1 241752Z 15010KT 28/20 A2984 RMK A01 T02800202  RH  063%=      5-min Rain = 0
KLA1 241753Z 16011KT 28/20 A2984 RMK A01 T02790202  RH  063%=      5-min Rain = 0
KLA1 241754Z 16014KT 28/20 A2984 RMK A01 T02790202  RH  063%=      5-min Rain = 0
KLA1 241755Z 17013KT 28/20 A2984 RMK A01 T02780201  RH  063%=      5-min Rain = 0
KLA1 241756Z 17012KT 28/20 A2983 RMK A01 T02770202  RH  063%=      5-min Rain = 0
KLA1 241757Z 18013KT 28/20 A2983 RMK A01 T02760202  RH  064%=      5-min Rain = 0
KLA1 241758Z 17011KT 28/20 A2983 RMK A01 T02750202  RH  064%=      5-min Rain = 0
KLA1 241759Z 16010KT 28/20 A2983 RMK A01 T02750202  RH  064%=      5-min Rain = 0
KLA1 241800Z 16012KT 28/20 A2983 RMK A01 T02750202  RH  064%=      5-min Rain = 0
KLA1 241801Z 15011KT 28/20 A2983 RMK A01 T02750202  RH  064%=      5-min Rain = 0
KLA1 241802Z 14012KT 28/20 A2983 RMK A01 T02750202  RH  064%=      5-min Rain = 0
KLA1 241803Z 15011KT 28/20 A2983 RMK A01 T02750202  RH  064%=      5-min Rain = 0
KLA1 241804Z 15009KT 28/20 A2983 RMK A01 T02750202  RH  064%=      5-min Rain = 0
KLA1 241805Z 14009KT 28/20 A2983 RMK A01 T02750202  RH  064%=      5-min Rain = 0
KLA1 241806Z 14009KT 28/20 A2983 RMK A01 T02750202  RH  064%=      5-min Rain = 0
KLA1 241807Z 13008KT 28/20 A2982 RMK A01 T02760202  RH  064%=      5-min Rain = 0
KLA1 241808Z 12010G15KT 28/20 A2983 RMK A01 T02760202  RH  064%=      5-min Rain = 0
KLA1 241809Z 13011KT 28/20 A2983 RMK A01 T02770202  RH  064%=      5-min Rain = 0
KLA1 241810Z 14012KT 28/20 A2983 RMK A01 T02770203  RH  064%=      5-min Rain = 0
KLA1 241811Z 14012KT 28/20 A2983 RMK A01 T02770202  RH  064%=      5-min Rain = 0
KLA1 241812Z 15012KT 28/20 A2983 RMK A01 T02770203  RH  064%=      5-min Rain = 0
KLA1 241813Z 15012KT 28/20 A2983 RMK A01 T02770203  RH  064%=      5-min Rain = 0
KLA1 241814Z 17011KT 28/20 A2983 RMK A01 T02770202  RH  064%=      5-min Rain = 0
KLA1 241815Z 16010G16KT 28/20 A2983 RMK A01 T02770203  RH  064%=      5-min Rain = 0
KLA1 241816Z 17013KT 28/20 A2983 RMK A01 T02770203  RH  064%=      5-min Rain = 0
KLA1 241817Z 16010KT 28/20 A2983 RMK A01 T02770204  RH  064%=      5-min Rain = 0
KLA1 241818Z 16013KT 28/20 A2983 RMK A01 T02770204  RH  064%=      5-min Rain = 0
KLA1 241819Z 15012KT 28/20 A2982 RMK A01 T02770204  RH  064%=      5-min Rain = 0
KLA1 241820Z 15008KT 28/20 A2982 RMK A01 T02780204  RH  064%=      5-min Rain = 0
KLA1 241821Z 14013KT 28/20 A2982 RMK A01 T02790204  RH  064%=      5-min Rain = 0
KLA1 241822Z 15013KT 28/20 A2982 RMK A01 T02800204  RH  064%=      5-min Rain = 0
KLA1 241823Z 15011KT 28/21 A2982 RMK A01 T02800205  RH  064%=      5-min Rain = 0
KLA1 241824Z 14012KT 28/21 A2982 RMK A01 T02790205  RH  064%=      5-min Rain = 0
KLA1 241825Z 14014KT 28/20 A2982 RMK A01 T02800204  RH  064%=      5-min Rain = 0
KLA1 241826Z 14015KT 28/21 A2982 RMK A01 T02810205  RH  063%=      5-min Rain = 0
KLA1 241827Z 14013KT 28/21 A2982 RMK A01 T02820205  RH  063%=      5-min Rain = 0
KLA1 241828Z 14013KT 29/21 A2982 RMK A01 T02850206  RH  062%=      5-min Rain = 0
KLA1 241829Z 14014KT 29/21 A2982 RMK A01 T02870207  RH  062%=      5-min Rain = 0
KLA1 241830Z 14014KT 29/21 A2982 RMK A01 T02890206  RH  061%=      5-min Rain = 0
KLA1 241831Z 14013KT 29/21 A2982 RMK A01 T02880206  RH  061%=      5-min Rain = 0
KLA1 241832Z 14010G15KT 29/21 A2981 RMK A01 T02890207  RH  061%=      5-min Rain = 0
KLA1 241833Z 14015KT 29/21 A2981 RMK A01 T02930207  RH  060%=      5-min Rain = 0
KLA1 241834Z 12012KT 29/21 A2981 RMK A01 T02940207  RH  060%=      5-min Rain = 0
KLA1 241835Z 13016KT 29/21 A2981 RMK A01 T02940207  RH  059%=      5-min Rain = 0
KLA1 241836Z 14015KT 29/21 A2981 RMK A01 T02940207  RH  059%=      5-min Rain = 0
KLA1 241837Z 15011KT 29/21 A2981 RMK A01 T02930207  RH  060%=      5-min Rain = 0
KLA1 241838Z 14010KT 29/21 A2981 RMK A01 T02930207  RH  060%=      5-min Rain = 0
KLA1 241839Z 12013G18KT 29/21 A2981 RMK A01 T02940207  RH  060%=      5-min Rain = 0
KLA1 241840Z 13012KT 30/21 A2981 RMK A01 T02950207  RH  059%=      5-min Rain = 0
KLA1 241841Z 13018KT 29/21 A2981 RMK A01 T02940207  RH  059%=      5-min Rain = 0
KLA1 241842Z 12016KT 29/21 A2981 RMK A01 T02910206  RH  060%=      5-min Rain = 0
KLA1 241843Z 13014G19KT 29/21 A2981 RMK A01 T02900206  RH  061%=      5-min Rain = 0
KLA1 241844Z 12016KT 29/21 A2981 RMK A01 T02890206  RH  061%=      5-min Rain = 0
KLA1 241845Z 12014G19KT 29/21 A2981 RMK A01 T02880205  RH  061%=      5-min Rain = 0
KLA1 241846Z 12012G17KT 29/21 A2981 RMK A01 T02900206  RH  060%=      5-min Rain = 0
KLA1 241847Z 14012KT 29/21 A298 RMK A01 T02920206  RH  060%=      5-min Rain = 0
KLA1 241848Z 12013KT 30/21 A2981 RMK A01 T02960205  RH  058%=      5-min Rain = 0
KLA1 241849Z 13014KT 30/21 A2981 RMK A01 T02970206  RH  058%=      5-min Rain = 0
KLA1 241850Z 12010KT 29/20 A298 RMK A01 T02930204  RH  058%=      5-min Rain = 0
KLA1 241851Z 13009KT 29/20 A298 RMK A01 T02910204  RH  059%=      5-min Rain = 0
KLA1 241852Z 13010G15KT 29/21 A298 RMK A01 T02920205  RH  059%=      5-min Rain = 0
KLA1 241853Z 12012KT 29/21 A298 RMK A01 T02940206  RH  059%=      5-min Rain = 0
KLA1 241854Z 11009KT 29/21 A298 RMK A01 T02930205  RH  059%=      5-min Rain = 0
KLA1 241855Z 12009KT 29/20 A298 RMK A01 T02920204  RH  059%=      5-min Rain = 0
KLA1 241856Z 14010G15KT 29/21 A298 RMK A01 T02940206  RH  059%=      5-min Rain = 0
KLA1 241857Z 15011KT 30/21 A298 RMK A01 T02950205  RH  058%=      5-min Rain = 0
KLA1 241858Z 16009KT 29/21 A2979 RMK A01 T02930205  RH  059%=      5-min Rain = 0
KLA1 241859Z 12010G17KT 29/21 A2979 RMK A01 T02920206  RH  060%=      5-min Rain = 0
KLA1 241900Z 11013KT 30/20 A2979 RMK A01 T02950204  RH  058%=      5-min Rain = 0
KLA1 241901Z 11013KT 30/20 A2979 RMK A01 T02970204  RH  057%=      5-min Rain = 0
KLA1 241902Z 12008KT 30/20 A2979 RMK A01 T02980203  RH  057%=      5-min Rain = 0
KLA1 241903Z 16011G16KT 30/20 A2979 RMK A01 T03000204  RH  056%=      5-min Rain = 0
KLA1 241904Z 17009KT 30/20 A2979 RMK A01 T03030204  RH  055%=      5-min Rain = 0
KLA1 241905Z 17012KT 31/21 A2978 RMK A01 T03050205  RH  055%=      5-min Rain = 0
KLA1 241906Z 14010G15KT 31/21 A2978 RMK A01 T03090206  RH  054%=      5-min Rain = 0
KLA1 241907Z 15006KT 31/21 A2978 RMK A01 T03090206  RH  054%=      5-min Rain = 0
KLA1 241908Z 14006G11KT 31/21 A2978 RMK A01 T03100206  RH  054%=      5-min Rain = 0
KLA1 241909Z 14008KT 31/21 A2978 RMK A01 T03100205  RH  053%=      5-min Rain = 0
KLA1 241910Z 15008KT 31/21 A2978 RMK A01 T03080205  RH  054%=      5-min Rain = 0
KLA1 241911Z 13009KT 31/21 A2978 RMK A01 T03070205  RH  054%=      5-min Rain = 0
KLA1 241912Z 15011KT 31/21 A2978 RMK A01 T03090205  RH  054%=      5-min Rain = 0
KLA1 241913Z 15012KT 31/20 A2978 RMK A01 T03120202  RH  052%=      5-min Rain = 0
KLA1 241914Z 13013KT 31/20 A2978 RMK A01 T03140203  RH  052%=      5-min Rain = 0
KLA1 241915Z 13014KT 32/21 A2978 RMK A01 T03160205  RH  052%=      5-min Rain = 0
KLA1 241916Z 13013KT 32/20 A2978 RMK A01 T03170204  RH  051%=      5-min Rain = 0
KLA1 241917Z 16012KT 32/21 A2978 RMK A01 T03180205  RH  051%=      5-min Rain = 0
KLA1 241918Z 16013KT 32/20 A2977 RMK A01 T03200203  RH  050%=      5-min Rain = 0
KLA1 241919Z 14012KT 32/20 A2977 RMK A01 T03180202  RH  050%=      5-min Rain = 0
KLA1 241920Z 15014KT 32/20 A2977 RMK A01 T03190200  RH  049%=      5-min Rain = 0
KLA1 241921Z 14015KT 32/20 A2977 RMK A01 T03180198  RH  049%=      5-min Rain = 0
KLA1 241922Z 15013KT 32/20 A2977 RMK A01 T03180197  RH  049%=      5-min Rain = 0
KLA1 241923Z 14012KT 32/20 A2977 RMK A01 T03180197  RH  049%=      5-min Rain = 0
KLA1 241924Z 15011KT 32/20 A2977 RMK A01 T03190200  RH  049%=      5-min Rain = 0
KLA1 241925Z 15011G16KT 32/20 A2977 RMK A01 T03220201  RH  049%=      5-min Rain = 0
KLA1 241926Z 15012KT 32/20 A2977 RMK A01 T03220201  RH  049%=      5-min Rain = 0
KLA1 241927Z 16013KT 32/20 A2977 RMK A01 T03230196  RH  047%=      5-min Rain = 0
KLA1 241928Z 15012G21KT 32/20 A2977 RMK A01 T03210196  RH  048%=      5-min Rain = 0
KLA1 241929Z 13014KT 32/20 A2977 RMK A01 T03200196  RH  048%=      5-min Rain = 0
KLA1 241930Z 13014KT 32/20 A2977 RMK A01 T03190199  RH  049%=      5-min Rain = 0
KLA1 241931Z 14015G20KT 32/20 A2977 RMK A01 T03180199  RH  049%=      5-min Rain = 0
KLA1 241932Z 13015KT 32/20 A2977 RMK A01 T03180198  RH  049%=      5-min Rain = 0
KLA1 241933Z 15013G18KT 32/20 A2977 RMK A01 T03180198  RH  049%=      5-min Rain = 0
KLA1 241934Z 15013KT 32/20 A2977 RMK A01 T03180198  RH  049%=      5-min Rain = 0
KLA1 241935Z 16012KT 32/20 A2977 RMK A01 T03170198  RH  049%=      5-min Rain = 0
KLA1 241936Z 14016G21KT 32/20 A2977 RMK A01 T03170201  RH  050%=      5-min Rain = 0
KLA1 241937Z 14011KT 32/20 A2977 RMK A01 T03180202  RH  050%=      5-min Rain = 0
KLA1 241938Z 15011G18KT 32/20 A2976 RMK A01 T03160202  RH  051%=      5-min Rain = 0
KLA1 241939Z 14015KT 32/20 A2976 RMK A01 T03190201  RH  049%=      5-min Rain = 0
KLA1 241940Z 15011KT 32/20 A2976 RMK A01 T03210200  RH  049%=      5-min Rain = 0
KLA1 241941Z 17013KT 32/20 A2976 RMK A01 T03230199  RH  048%=      5-min Rain = 0
KLA1 241942Z 17014KT 32/20 A2976 RMK A01 T03230199  RH  048%=      5-min Rain = 0
KLA1 241943Z 16010KT 32/20 A2976 RMK A01 T03200200  RH  049%=      5-min Rain = 0
KLA1 241944Z 15015KT 32/20 A2976 RMK A01 T03220201  RH  049%=      5-min Rain = 0
KLA1 241945Z 14015KT 32/20 A2976 RMK A01 T03240200  RH  048%=      5-min Rain = 0
KLA1 241946Z 14012G17KT 32/20 A2976 RMK A01 T03230200  RH  048%=      5-min Rain = 0
KLA1 241947Z 16011KT 32/20 A2976 RMK A01 T03210201  RH  049%=      5-min Rain = 0
KLA1 241948Z 15014KT 32/20 A2976 RMK A01 T03200202  RH  049%=      5-min Rain = 0
KLA1 241949Z 14014KT 32/20 A2976 RMK A01 T03200201  RH  049%=      5-min Rain = 0
KLA1 241950Z 15012KT 32/20 A2976 RMK A01 T03200199  RH  049%=      5-min Rain = 0
KLA1 241951Z 15016KT 32/20 A2975 RMK A01 T03170199  RH  050%=      5-min Rain = 0
KLA1 241952Z 14017KT 31/20 A2976 RMK A01 T03140196  RH  050%=      5-min Rain = 0
KLA1 241953Z 15017KT 31/19 A2976 RMK A01 T03110193  RH  050%=      5-min Rain = 0
KLA1 241954Z 16011KT 31/19 A2976 RMK A01 T03090194  RH  050%=      5-min Rain = 0
KLA1 241955Z 15014KT 31/20 A2976 RMK A01 T03100195  RH  050%=      5-min Rain = 0
KLA1 241956Z 13011G18KT 31/20 A2976 RMK A01 T03110195  RH  050%=      5-min Rain = 0
KLA1 241957Z 13014KT 31/20 A2976 RMK A01 T03130195  RH  049%=      5-min Rain = 0
KLA1 241958Z 15013KT 31/19 A2975 RMK A01 T03140194  RH  049%=      5-min Rain = 0
KLA1 241959Z 15014KT 32/20 A2975 RMK A01 T03160195  RH  048%=      5-min Rain = 0
KLA1 242000Z 13015G21KT 32/20 A2975 RMK A01 T03160198  RH  050%=      5-min Rain = 0
KLA1 242001Z 13013KT 31/20 A2975 RMK A01 T03130199  RH  051%=      5-min Rain = 0
KLA1 242002Z 13012KT 31/20 A2975 RMK A01 T03120198  RH  051%=      5-min Rain = 0
KLA1 242003Z 14012KT 31/20 A2975 RMK A01 T03120198  RH  051%=      5-min Rain = 0
KLA1 242004Z 14013KT 31/20 A2975 RMK A01 T03130199  RH  051%=      5-min Rain = 0
KLA1 242005Z 15012KT 31/20 A2975 RMK A01 T03140197  RH  050%=      5-min Rain = 0
KLA1 242006Z 16011G16KT 31/20 A2975 RMK A01 T03110198  RH  051%=      5-min Rain = 0
KLA1 242007Z 16015KT 31/20 A2974 RMK A01 T03080197  RH  052%=      5-min Rain = 0
KLA1 242008Z 14012KT 31/20 A2974 RMK A01 T03070196  RH  052%=      5-min Rain = 0
KLA1 242009Z 14013KT 31/20 A2975 RMK A01 T03060195  RH  051%=      5-min Rain = 0
KLA1 242010Z 12012KT 31/19 A2975 RMK A01 T03070194  RH  051%=      5-min Rain = 0
KLA1 242011Z 12011KT 31/19 A2974 RMK A01 T03080193  RH  051%=      5-min Rain = 0
KLA1 242012Z 14013KT 31/19 A2974 RMK A01 T03080194  RH  051%=      5-min Rain = 0
KLA1 242013Z 13009G14KT 31/20 A2974 RMK A01 T03090195  RH  051%=      5-min Rain = 0
KLA1 242014Z 13010KT 31/20 A2974 RMK A01 T03100195  RH  050%=      5-min Rain = 0
KLA1 242015Z 13011KT 31/20 A2974 RMK A01 T03100195  RH  050%=      5-min Rain = 0
KLA1 242016Z 13016KT 31/20 A2974 RMK A01 T03080195  RH  051%=      5-min Rain = 0
KLA1 242017Z 13014KT 31/19 A2974 RMK A01 T03060192  RH  051%=      5-min Rain = 0
KLA1 242018Z 13015KT 31/19 A2974 RMK A01 T03050192  RH  051%=      5-min Rain = 0
KLA1 242019Z 14013KT 30/19 A2974 RMK A01 T03030191  RH  051%=      5-min Rain = 0
KLA1 242020Z 14013KT 30/19 A2973 RMK A01 T03030192  RH  052%=      5-min Rain = 0
KLA1 242021Z 14010KT 30/19 A2973 RMK A01 T03020193  RH  052%=      5-min Rain = 0
KLA1 242022Z 13014KT 30/19 A2973 RMK A01 T03020193  RH  052%=      5-min Rain = 0
KLA1 242023Z 12013KT 30/19 A2972 RMK A01 T03020193  RH  052%=      5-min Rain = 0
KLA1 242024Z 11011G16KT 30/19 A2972 RMK A01 T03020194  RH  052%=      5-min Rain = 0
KLA1 242025Z 12012KT 30/19 A2973 RMK A01 T03020193  RH  052%=      5-min Rain = 0
KLA1 242026Z 13013KT 30/19 A2973 RMK A01 T03010193  RH  052%=      5-min Rain = 0
KLA1 242027Z 11011KT 30/19 A2973 RMK A01 T03010193  RH  052%=      5-min Rain = 0
KLA1 242028Z 12011KT 30/19 A2973 RMK A01 T02990193  RH  053%=      5-min Rain = 0
KLA1 242029Z 14014KT 30/19 A2973 RMK A01 T02990192  RH  053%=      5-min Rain = 0
KLA1 242030Z 14012KT 30/19 A2972 RMK A01 T02980191  RH  052%=      5-min Rain = 0
KLA1 242031Z 13011KT 30/19 A2972 RMK A01 T02980192  RH  053%=      5-min Rain = 0
KLA1 242032Z 12014KT 30/19 A2972 RMK A01 T02980193  RH  053%=      5-min Rain = 0
KLA1 242033Z 13011KT 30/19 A2971 RMK A01 T02970194  RH  054%=      5-min Rain = 0
KLA1 242034Z 14012KT 30/19 A2971 RMK A01 T02960194  RH  054%=      5-min Rain = 0
KLA1 242035Z 13013KT 30/19 A2971 RMK A01 T02960194  RH  054%=      5-min Rain = 0
KLA1 242036Z 13011KT 30/19 A2971 RMK A01 T02950193  RH  054%=      5-min Rain = 0
KLA1 242037Z 14013KT 30/19 A2971 RMK A01 T02950193  RH  054%=      5-min Rain = 0
KLA1 242038Z 14009KT 30/19 A2972 RMK A01 T02950192  RH  054%=      5-min Rain = 0
KLA1 242039Z 14010KT 30/19 A2972 RMK A01 T02950192  RH  054%=      5-min Rain = 0
KLA1 242040Z 14010KT 30/19 A2972 RMK A01 T02950192  RH  054%=      5-min Rain = 0
KLA1 242041Z 14011KT 30/19 A2973 RMK A01 T02950192  RH  054%=      5-min Rain = 0
KLA1 242042Z 14009KT 30/19 A2973 RMK A01 T02950192  RH  054%=      5-min Rain = 0
KLA1 242043Z 16011KT 30/19 A2973 RMK A01 T02950191  RH  053%=      5-min Rain = 0
KLA1 242044Z 15011KT 30/19 A2973 RMK A01 T02950190  RH  053%=      5-min Rain = 0
KLA1 242045Z 14010KT 30/19 A2973 RMK A01 T02950190  RH  053%=      5-min Rain = 0
KLA1 242046Z 14010KT 29/19 A2973 RMK A01 T02940191  RH  054%=      5-min Rain = 0
KLA1 242047Z 14011KT 29/19 A2973 RMK A01 T02940191  RH  054%=      5-min Rain = 0
KLA1 242048Z 14010KT 29/19 A2973 RMK A01 T02940192  RH  054%=      5-min Rain = 0
KLA1 242049Z 14011KT 29/19 A2973 RMK A01 T02940192  RH  054%=      5-min Rain = 0
KLA1 242050Z 15012KT 29/19 A2973 RMK A01 T02940192  RH  054%=      5-min Rain = 0
KLA1 242051Z 15010KT 29/19 A2973 RMK A01 T02940192  RH  054%=      5-min Rain = 0
KLA1 242052Z 15013KT 29/19 A2973 RMK A01 T02940191  RH  054%=      5-min Rain = 0
KLA1 242053Z 14012KT 29/19 A2973 RMK A01 T02930190  RH  054%=      5-min Rain = 0
KLA1 242054Z 13009KT 29/19 A2973 RMK A01 T02930191  RH  054%=      5-min Rain = 0
KLA1 242055Z 14011KT 29/19 A2973 RMK A01 T02930191  RH  054%=      5-min Rain = 0
KLA1 242056Z 13009KT 29/19 A2973 RMK A01 T02930191  RH  054%=      5-min Rain = 0
KLA1 242057Z 12011KT 29/19 A2972 RMK A01 T02930192  RH  054%=      5-min Rain = 0
KLA1 242058Z 09010KT 29/19 A2971 RMK A01 T02920192  RH  055%=      5-min Rain = 0
KLA1 242059Z 08013KT 29/19 A297 RMK A01 T02920191  RH  055%=      5-min Rain = 0
KLA1 242100Z 08013KT 29/19 A2969 RMK A01 T02910191  RH  055%=      5-min Rain = 0
KLA1 242101Z 09013KT 29/19 A2969 RMK A01 T02910190  RH  055%=      5-min Rain = 0
KLA1 242102Z 09014KT 29/19 A2969 RMK A01 T02910190  RH  055%=      5-min Rain = 0
KLA1 242103Z 10014KT 29/19 A2969 RMK A01 T02910190  RH  054%=      5-min Rain = 0
KLA1 242104Z 11013KT 29/19 A297 RMK A01 T02910190  RH  055%=      5-min Rain = 0
KLA1 242105Z 11013G18KT 29/19 A297 RMK A01 T02910190  RH  055%=      5-min Rain = 0
KLA1 242106Z 12014KT 29/19 A2971 RMK A01 T02910190  RH  055%=      5-min Rain = 0
KLA1 242107Z 12014KT 29/19 A2971 RMK A01 T02910191  RH  055%=      5-min Rain = 0
KLA1 242108Z 14013G18KT 29/19 A2971 RMK A01 T02910191  RH  055%=      5-min Rain = 0
KLA1 242109Z 13014KT 29/19 A2971 RMK A01 T02910191  RH  055%=      5-min Rain = 0
KLA1 242110Z 13012KT 29/19 A2971 RMK A01 T02910191  RH  055%=      5-min Rain = 0
KLA1 242111Z 13013G20KT 29/19 A2971 RMK A01 T02910191  RH  055%=      5-min Rain = 0
KLA1 242112Z 13013KT 29/19 A2971 RMK A01 T02910191  RH  055%=      5-min Rain = 0
KLA1 242113Z 14010KT 29/19 A2972 RMK A01 T02910190  RH  055%=      5-min Rain = 0
KLA1 242114Z 15015G21KT 29/19 A2972 RMK A01 T02910191  RH  055%=      5-min Rain = 0
KLA1 242115Z 15017KT 29/19 A2972 RMK A01 T02920192  RH  055%=      5-min Rain = 0
KLA1 242116Z 15016KT 29/19 A2973 RMK A01 T02910193  RH  055%=      5-min Rain = 0
KLA1 242117Z 16017G23KT 29/19 A2973 RMK A01 T02910193  RH  056%=      5-min Rain = 0
KLA1 242118Z 15018G24KT 29/19 A2974 RMK A01 T02900194  RH  056%=      5-min Rain = 0
KLA1 242119Z 16015G20KT 29/19 A2974 RMK A01 T02890194  RH  056%=      5-min Rain = 0
KLA1 242120Z 15016KT 29/20 A2974 RMK A01 T02890195  RH  057%=      5-min Rain = 0
KLA1 242121Z 17015G21KT 29/20 A2975 RMK A01 T02890196  RH  057%=      5-min Rain = 0
KLA1 242122Z 19022G31KT 29/20 A2976 RMK A01 T02890196  RH  057%=      5-min Rain = 0
KLA1 242123Z 22025G34KT 28/17 A2978 RMK A01 T02820173  RH  052%=      5-min Rain = 0
KLA1 242124Z 22022G31KT 25/15 A2978 RMK A01 T02490151  RH  055%=      5-min Rain = 0
KLA1 242125Z 24018G28KT 22/15 A2979 RMK A01 T02220150  RH  063%=      5-min Rain = 0
KLA1 242126Z 24015KT 21/15 A2979 RMK A01 T02090152  RH  070%=      5-min Rain = 0
KLA1 242127Z 23013G18KT 20/16 A2979 RMK A01 T02010156  RH  076%=      5-min Rain = 0
KLA1 242128Z 24014G27KT 20/16 A2979 RMK A01 T01950155  RH  078%=      5-min Rain = 0.01
KLA1 242129Z 23020G26KT 19/15 A298 RMK A01 T01880152  RH  079%=      5-min Rain = 0.01
KLA1 242130Z 23011KT 18/15 A2981 RMK A01 T01820152  RH  083%=      5-min Rain = 0.01
KLA1 242131Z 25027G39KT 18/15 A2981 RMK A01 T01760149  RH  084%=      5-min Rain = 0.03
KLA1 242132Z 23022G34KT 17/15 A2981 RMK A01 T01690150  RH  089%=      5-min Rain = 0.04
KLA1 242133Z 23019G24KT 16/16 A2981 RMK A01 T01640156  RH  095%=      5-min Rain = 0.06
KLA1 242134Z 24024G39KT 16/16 A2981 RMK A01 T01600160  RH  100%=      5-min Rain = 0.05
KLA1 242135Z 25035G45KT 16/16 A298 RMK A01 T01560156  RH  100%=      5-min Rain = 0.05
KLA1 242136Z 25034G47KT 15/15 A298 RMK A01 T01520152  RH  100%=      5-min Rain = 0.03
KLA1 242137Z 25034G45KT 15/15 A298 RMK A01 T01500150  RH  100%=      5-min Rain = 0.04
KLA1 242138Z 25033G44KT 15/15 A2981 RMK A01 T01490149  RH  100%=      5-min Rain = 0.02
KLA1 242139Z 25033G43KT 15/15 A2982 RMK A01 T01490149  RH  100%=      5-min Rain = 0.03
KLA1 242140Z 25028G36KT 15/15 A2983 RMK A01 T01490149  RH  100%=      5-min Rain = 0.04
KLA1 242141Z 25027G38KT 15/15 A2984 RMK A01 T01500150  RH  100%=      5-min Rain = 0.04
KLA1 242142Z 26027G34KT 15/15 A2985 RMK A01 T01500150  RH  100%=      5-min Rain = 0.05
KLA1 242143Z 26021G28KT 15/15 A2985 RMK A01 T01500150  RH  100%=      5-min Rain = 0.02
KLA1 242144Z 27019G25KT 15/15 A2985 RMK A01 T01500151  RH  100%=      5-min Rain = 0.03
KLA1 242145Z 27019G24KT 15/15 A2985 RMK A01 T01510151  RH  100%=      5-min Rain = 0.03
KLA1 242146Z 27017KT 15/15 A2985 RMK A01 T01500150  RH  100%=      5-min Rain = 0.02
KLA1 242147Z 27013G18KT 15/15 A2986 RMK A01 T01500150  RH  100%=      5-min Rain = 0.02
KLA1 242148Z 29014G19KT 15/15 A2985 RMK A01 T01500150  RH  100%=      5-min Rain = 0.01
KLA1 242149Z 29013KT 15/15 A2985 RMK A01 T01500150  RH  100%=      5-min Rain = 0.03
KLA1 242150Z 29013KT 15/15 A2985 RMK A01 T01510151  RH  100%=      5-min Rain = 0.01
KLA1 242151Z 28012G18KT 15/15 A2984 RMK A01 T01500150  RH  100%=      5-min Rain = 0
KLA1 242152Z 28008KT 15/15 A2984 RMK A01 T01500150  RH  100%=      5-min Rain = 0.01
KLA1 242153Z 29009KT 15/15 A2984 RMK A01 T01500150  RH  100%=      5-min Rain = 0.01
KLA1 242154Z 29011KT 15/15 A2984 RMK A01 T01500150  RH  100%=      5-min Rain = 0.01
KLA1 242155Z 29011KT 15/15 A2984 RMK A01 T01500150  RH  100%=      5-min Rain = 0.01
KLA1 242156Z 29010KT 15/15 A2984 RMK A01 T01500150  RH  100%=      5-min Rain = 0.01
KLA1 242157Z 31010KT 15/15 A2984 RMK A01 T01500150  RH  100%=      5-min Rain = 0
KLA1 242158Z 32008KT 15/15 A2985 RMK A01 T01500150  RH  100%=      5-min Rain = 0
KLA1 242159Z 35007KT 15/15 A2984 RMK A01 T01500150  RH  100%=      5-min Rain = 0.01
KLA1 242200Z 32006KT 15/15 A2984 RMK A01 T01500150  RH  100%=      5-min Rain = 0
KLA1 242201Z 35004KT 15/15 A2984 RMK A01 T01490150  RH  100%=      5-min Rain = 0
KLA1 242202Z 33004KT 15/15 A2984 RMK A01 T01490149  RH  100%=      5-min Rain = 0.01
KLA1 242203Z 33004KT 15/15 A2984 RMK A01 T01490149  RH  100%=      5-min Rain = 0
KLA1 242204Z 35006KT 15/15 A2983 RMK A01 T01490149  RH  100%=      5-min Rain = 0
KLA1 242205Z 01007KT 15/15 A2982 RMK A01 T01480149  RH  100%=      5-min Rain = 0
KLA1 242206Z 01008KT 15/15 A2982 RMK A01 T01490149  RH  100%=      5-min Rain = 0
KLA1 242207Z 36007KT 15/15 A2981 RMK A01 T01490149  RH  100%=      5-min Rain = 0
KLA1 242208Z 35009KT 15/15 A2982 RMK A01 T01500150  RH  100%=      5-min Rain = 0
KLA1 242209Z 35012KT 15/15 A2982 RMK A01 T01510151  RH  100%=      5-min Rain = 0
KLA1 242210Z 00012KT 15/15 A2982 RMK A01 T01510151  RH  100%=      5-min Rain = 0
KLA1 242211Z 01007KT 15/15 A2982 RMK A01 T01500151  RH  100%=      5-min Rain = 0
KLA1 242212Z 02009KT 15/15 A2981 RMK A01 T01510151  RH  100%=      5-min Rain = 0
KLA1 242213Z 02010KT 15/15 A2982 RMK A01 T01510151  RH  100%=      5-min Rain = 0
KLA1 242214Z 01009KT 15/15 A2982 RMK A01 T01510151  RH  100%=      5-min Rain = 0
KLA1 242215Z 01006KT 15/15 A2982 RMK A01 T01520152  RH  100%=      5-min Rain = 0
KLA1 242216Z 03006KT 15/15 A2983 RMK A01 T01530153  RH  100%=      5-min Rain = 0.02
KLA1 242217Z 03007KT 15/15 A2983 RMK A01 T01530153  RH  100%=      5-min Rain = 0
KLA1 242218Z 03007KT 15/15 A2983 RMK A01 T01530153  RH  100%=      5-min Rain = 0
KLA1 242219Z 03006KT 15/15 A2983 RMK A01 T01530154  RH  100%=      5-min Rain = 0
KLA1 242220Z 02006KT 15/15 A2983 RMK A01 T01540154  RH  100%=      5-min Rain = 0
KLA1 242221Z 03005KT 16/16 A2983 RMK A01 T01550155  RH  100%=      5-min Rain = 0
KLA1 242222Z 03003KT 16/16 A2983 RMK A01 T01560157  RH  100%=      5-min Rain = 0
KLA1 242223Z 06004KT 16/16 A2983 RMK A01 T01570157  RH  100%=      5-min Rain = 0
KLA1 242224Z 05003KT 16/16 A2983 RMK A01 T01580157  RH  099%=      5-min Rain = 0
KLA1 242225Z 05003KT 16/15 A2984 RMK A01 T01600152  RH  095%=      5-min Rain = 0
KLA1 242226Z 05001KT 16/15 A2984 RMK A01 T01630148  RH  091%=      5-min Rain = 0
KLA1 242227Z 09002KT 17/15 A2984 RMK A01 T01660148  RH  089%=      5-min Rain = 0
KLA1 242228Z 11005G10KT 17/15 A2983 RMK A01 T01680146  RH  087%=      5-min Rain = 0
KLA1 242229Z 06006KT 17/15 A2982 RMK A01 T01700148  RH  087%=      5-min Rain = 0
KLA1 242230Z 05006KT 17/15 A2982 RMK A01 T01710147  RH  086%=      5-min Rain = 0
KLA1 242231Z 02007G13KT 17/15 A2982 RMK A01 T01730145  RH  084%=      5-min Rain = 0
KLA1 242232Z 02010G15KT 17/14 A2982 RMK A01 T01740143  RH  082%=      5-min Rain = 0
KLA1 242233Z 02013KT 18/14 A2982 RMK A01 T01760142  RH  080%=      5-min Rain = 0
KLA1 242234Z 01008G14KT 18/15 A2982 RMK A01 T01770145  RH  082%=      5-min Rain = 0
KLA1 242235Z 01013KT 18/15 A2982 RMK A01 T01760149  RH  084%=      5-min Rain = 0
KLA1 242236Z 02014KT 17/15 A2982 RMK A01 T01740148  RH  085%=      5-min Rain = 0
KLA1 242237Z 02010KT 17/15 A2982 RMK A01 T01740148  RH  085%=      5-min Rain = 0
KLA1 242238Z 02012KT 17/15 A2982 RMK A01 T01740148  RH  084%=      5-min Rain = 0.01
KLA1 242239Z 03013KT 17/15 A2982 RMK A01 T01740145  RH  083%=      5-min Rain = 0
KLA1 242240Z 03010G15KT 18/15 A2981 RMK A01 T01760145  RH  082%=      5-min Rain = 0
KLA1 242241Z 03014G23KT 18/15 A2981 RMK A01 T01760146  RH  082%=      5-min Rain = 0
KLA1 242242Z 03022G27KT 18/14 A298 RMK A01 T01770143  RH  081%=      5-min Rain = 0
KLA1 242243Z 03017KT 18/14 A298 RMK A01 T01770142  RH  080%=      5-min Rain = 0
KLA1 242244Z 02013G20KT 18/14 A298 RMK A01 T01780142  RH  080%=      5-min Rain = 0
KLA1 242245Z 03014KT 18/14 A298 RMK A01 T01780142  RH  079%=      5-min Rain = 0
KLA1 242246Z 00010KT 18/14 A298 RMK A01 T01790138  RH  077%=      5-min Rain = 0
KLA1 242247Z 36012KT 18/14 A298 RMK A01 T01810138  RH  076%=      5-min Rain = 0
KLA1 242248Z 00008KT 18/14 A298 RMK A01 T01830141  RH  076%=      5-min Rain = 0
KLA1 242249Z 03010G16KT 18/14 A298 RMK A01 T01830140  RH  076%=      5-min Rain = 0
KLA1 242250Z 04013KT 18/14 A2979 RMK A01 T01840141  RH  076%=      5-min Rain = 0
KLA1 242251Z 03017KT 18/14 A2979 RMK A01 T01840141  RH  076%=      5-min Rain = 0
KLA1 242252Z 03018G26KT 18/14 A2978 RMK A01 T01830140  RH  076%=      5-min Rain = 0
KLA1 242253Z 03020G26KT 18/14 A2979 RMK A01 T01830137  RH  074%=      5-min Rain = 0
KLA1 242254Z 03020KT 19/13 A2979 RMK A01 T01850134  RH  072%=      5-min Rain = 0
KLA1 242255Z 04016G22KT 19/13 A2979 RMK A01 T01870132  RH  070%=      5-min Rain = 0
KLA1 242256Z 04017G22KT 19/13 A2978 RMK A01 T01890130  RH  068%=      5-min Rain = 0
KLA1 242257Z 05015G21KT 19/13 A2978 RMK A01 T01930130  RH  067%=      5-min Rain = 0
KLA1 242258Z 06013G18KT 19/14 A2977 RMK A01 T01940136  RH  069%=      5-min Rain = 0
KLA1 242259Z 06017G22KT 19/14 A2976 RMK A01 T01910137  RH  071%=      5-min Rain = 0
KLA1 242300Z 07016G24KT 19/14 A2976 RMK A01 T01890135  RH  071%=      5-min Rain = 0
KLA1 242301Z 06018G23KT 19/13 A2975 RMK A01 T01890134  RH  070%=      5-min Rain = 0
KLA1 242302Z 06017G23KT 19/13 A2975 RMK A01 T01910127  RH  066%=      5-min Rain = 0
KLA1 242303Z 04013G19KT 20/13 A2976 RMK A01 T01950126  RH  064%=      5-min Rain = 0
KLA1 242304Z 06015G20KT 20/13 A2976 RMK A01 T01980126  RH  063%=      5-min Rain = 0
KLA1 242305Z 06012KT 20/13 A2975 RMK A01 T01990129  RH  064%=      5-min Rain = 0
KLA1 242306Z 03012KT 20/13 A2975 RMK A01 T01980132  RH  066%=      5-min Rain = 0
KLA1 242307Z 02014G19KT 20/13 A2975 RMK A01 T01960133  RH  067%=      5-min Rain = 0
KLA1 242308Z 01013G19KT 20/13 A2976 RMK A01 T01950132  RH  067%=      5-min Rain = 0
KLA1 242309Z 02014G22KT 20/13 A2976 RMK A01 T01960133  RH  067%=      5-min Rain = 0
KLA1 242310Z 04017KT 20/13 A2975 RMK A01 T01950131  RH  066%=      5-min Rain = 0
KLA1 242311Z 05014KT 20/13 A2975 RMK A01 T01960129  RH  065%=      5-min Rain = 0
KLA1 242312Z 04015G24KT 20/13 A2975 RMK A01 T01980129  RH  064%=      5-min Rain = 0
KLA1 242313Z 05018G23KT 20/13 A2975 RMK A01 T01990127  RH  063%=      5-min Rain = 0
KLA1 242314Z 05018G26KT 20/12 A2975 RMK A01 T02010124  RH  061%=      5-min Rain = 0
KLA1 242315Z 05018G25KT 20/13 A2976 RMK A01 T02030125  RH  061%=      5-min Rain = 0
KLA1 242316Z 05016G22KT 20/13 A2976 RMK A01 T02030126  RH  061%=      5-min Rain = 0
KLA1 242317Z 04015G25KT 20/13 A2977 RMK A01 T02030129  RH  062%=      5-min Rain = 0
KLA1 242318Z 04015G22KT 20/13 A2978 RMK A01 T02020130  RH  063%=      5-min Rain = 0
KLA1 242319Z 04015KT 20/13 A2977 RMK A01 T02000132  RH  065%=      5-min Rain = 0
KLA1 242320Z 05016G21KT 20/13 A2977 RMK A01 T01980132  RH  066%=      5-min Rain = 0
KLA1 242321Z 05017G22KT 20/13 A2976 RMK A01 T01980131  RH  065%=      5-min Rain = 0
KLA1 242322Z 05020G28KT 20/13 A2976 RMK A01 T01980125  RH  063%=      5-min Rain = 0
KLA1 242323Z 06022G27KT 20/13 A2975 RMK A01 T02010125  RH  062%=      5-min Rain = 0
KLA1 242324Z 06023G29KT 20/13 A2974 RMK A01 T02020127  RH  062%=      5-min Rain = 0
KLA1 242325Z 05024G35KT 20/13 A2974 RMK A01 T02030126  RH  061%=      5-min Rain = 0
KLA1 242326Z 06025G33KT 20/13 A2973 RMK A01 T02030125  RH  061%=      5-min Rain = 0
KLA1 242327Z 06022G28KT 20/13 A2972 RMK A01 T02040125  RH  061%=      5-min Rain = 0
KLA1 242328Z 07023G30KT 20/13 A2971 RMK A01 T02040125  RH  060%=      5-min Rain = 0
KLA1 242329Z 07021G30KT 20/12 A297 RMK A01 T02040123  RH  060%=      5-min Rain = 0
KLA1 242330Z 05019G28KT 21/12 A297 RMK A01 T02050121  RH  059%=      5-min Rain = 0
KLA1 242331Z 07021G28KT 21/12 A2971 RMK A01 T02060122  RH  059%=      5-min Rain = 0
KLA1 242332Z 06012G18KT 21/12 A2971 RMK A01 T02070124  RH  059%=      5-min Rain = 0
KLA1 242333Z 06019KT 21/12 A2971 RMK A01 T02070124  RH  059%=      5-min Rain = 0
KLA1 242334Z 06015G27KT 21/13 A2972 RMK A01 T02060125  RH  060%=      5-min Rain = 0
KLA1 242335Z 05023G30KT 21/12 A2973 RMK A01 T02060124  RH  059%=      5-min Rain = 0
KLA1 242336Z 05017G25KT 21/12 A2973 RMK A01 T02060123  RH  059%=      5-min Rain = 0
KLA1 242337Z 04019G25KT 21/12 A2974 RMK A01 T02080117  RH  056%=      5-min Rain = 0
KLA1 242338Z 03013G18KT 21/12 A2975 RMK A01 T02100123  RH  057%=      5-min Rain = 0
KLA1 242339Z 04016KT 21/13 A2974 RMK A01 T02100127  RH  059%=      5-min Rain = 0
KLA1 242340Z 05015G23KT 21/13 A2973 RMK A01 T02070127  RH  060%=      5-min Rain = 0
KLA1 242341Z 06016G21KT 21/13 A2972 RMK A01 T02060127  RH  060%=      5-min Rain = 0
KLA1 242342Z 06016G23KT 21/13 A2971 RMK A01 T02050127  RH  061%=      5-min Rain = 0
KLA1 242343Z 05012G25KT 21/12 A2972 RMK A01 T02050122  RH  059%=      5-min Rain = 0
KLA1 242344Z 06018G30KT 21/12 A2972 RMK A01 T02070118  RH  056%=      5-min Rain = 0
KLA1 242345Z 04014G24KT 21/12 A2974 RMK A01 T02090121  RH  057%=      5-min Rain = 0
KLA1 242346Z 02011G20KT 21/11 A2976 RMK A01 T02110114  RH  054%=      5-min Rain = 0
KLA1 242347Z 05015G23KT 21/12 A2977 RMK A01 T02130120  RH  055%=      5-min Rain = 0
KLA1 242348Z 05018G26KT 21/13 A2977 RMK A01 T02120125  RH  057%=      5-min Rain = 0
KLA1 242349Z 05017G24KT 21/13 A2976 RMK A01 T02090127  RH  059%=      5-min Rain = 0
KLA1 242350Z 06019G24KT 21/13 A2976 RMK A01 T02060127  RH  061%=      5-min Rain = 0
KLA1 242351Z 06016G22KT 20/13 A2975 RMK A01 T02040128  RH  062%=      5-min Rain = 0
KLA1 242352Z 07021G27KT 20/13 A2975 RMK A01 T02030127  RH  062%=      5-min Rain = 0
KLA1 242353Z 07020G25KT 20/13 A2975 RMK A01 T02020125  RH  061%=      5-min Rain = 0
KLA1 242354Z 07021KT 20/13 A2975 RMK A01 T02020126  RH  062%=      5-min Rain = 0
KLA1 242355Z 07018G23KT 20/13 A2976 RMK A01 T02020126  RH  062%=      5-min Rain = 0
KLA1 242356Z 07012G17KT 20/13 A2975 RMK A01 T02020129  RH  063%=      5-min Rain = 0
KLA1 242357Z 08016G24KT 20/13 A2975 RMK A01 T02010129  RH  063%=      5-min Rain = 0
KLA1 242358Z 08019G24KT 20/13 A2975 RMK A01 T02000128  RH  063%=      5-min Rain = 0
KLA1 242359Z 08014G23KT 20/13 A2975 RMK A01 T02000126  RH  062%=      5-min Rain = 0
KLA1 250000Z 07015G21KT 20/13 A2975 RMK A01 T02010127  RH  063%=      5-min Rain = 0
KLA1 250001Z 07018G24KT 20/13 A2975 RMK A01 T02010126  RH  062%=      5-min Rain = 0
KLA1 250002Z 07013G19KT 20/13 A2976 RMK A01 T02010125  RH  062%=      5-min Rain = 0
KLA1 250003Z 07014G19KT 20/13 A2976 RMK A01 T02020125  RH  061%=      5-min Rain = 0
KLA1 250004Z 06013G19KT 20/12 A2977 RMK A01 T02030124  RH  060%=      5-min Rain = 0
KLA1 250005Z 05011G18KT 20/13 A2977 RMK A01 T02030125  RH  061%=      5-min Rain = 0
KLA1 250006Z 05013KT 20/13 A2977 RMK A01 T02040127  RH  061%=      5-min Rain = 0
KLA1 250007Z 06013KT 20/13 A2977 RMK A01 T02030129  RH  063%=      5-min Rain = 0
KLA1 250008Z 07015KT 20/13 A2977 RMK A01 T02020129  RH  063%=      5-min Rain = 0
KLA1 250009Z 07016G21KT 20/13 A2976 RMK A01 T02010128  RH  063%=      5-min Rain = 0
KLA1 250010Z 07014G19KT 20/13 A2975 RMK A01 T02010127  RH  063%=      5-min Rain = 0
KLA1 250011Z 06015G23KT 20/13 A2975 RMK A01 T02010125  RH  062%=      5-min Rain = 0
KLA1 250012Z 07011KT 20/13 A2975 RMK A01 T02010126  RH  062%=      5-min Rain = 0
KLA1 250013Z 06014G20KT 20/13 A2975 RMK A01 T02010127  RH  062%=      5-min Rain = 0
KLA1 250014Z 06015G21KT 20/13 A2975 RMK A01 T02020126  RH  061%=      5-min Rain = 0
KLA1 250015Z 06012G18KT 20/13 A2976 RMK A01 T02030125  RH  061%=      5-min Rain = 0
KLA1 250016Z 05008G13KT 20/13 A2977 RMK A01 T02040125  RH  060%=      5-min Rain = 0
KLA1 250017Z 03010KT 20/12 A2977 RMK A01 T02040124  RH  060%=      5-min Rain = 0
KLA1 250018Z 04009G16KT 21/12 A2978 RMK A01 T02050124  RH  060%=      5-min Rain = 0
KLA1 250019Z 03009G17KT 21/13 A2979 RMK A01 T02050126  RH  060%=      5-min Rain = 0
KLA1 250020Z 05011G16KT 21/13 A2979 RMK A01 T02050126  RH  060%=      5-min Rain = 0
KLA1 250021Z 06010G17KT 21/13 A298 RMK A01 T02050126  RH  060%=      5-min Rain = 0
KLA1 250022Z 07007G12KT 21/13 A298 RMK A01 T02050127  RH  061%=      5-min Rain = 0
KLA1 250023Z 07010G15KT 20/13 A298 RMK A01 T02040128  RH  061%=      5-min Rain = 0
KLA1 250024Z 07013KT 20/13 A298 RMK A01 T02040125  RH  060%=      5-min Rain = 0
KLA1 250025Z 07014KT 20/12 A298 RMK A01 T02040122  RH  059%=      5-min Rain = 0
KLA1 250026Z 07015G20KT 21/12 A2979 RMK A01 T02060122  RH  059%=      5-min Rain = 0
KLA1 250027Z 08014KT 21/12 A298 RMK A01 T02070121  RH  058%=      5-min Rain = 0
KLA1 250028Z 07016KT 21/12 A298 RMK A01 T02070122  RH  058%=      5-min Rain = 0
KLA1 250029Z 07013KT 21/12 A298 RMK A01 T02080123  RH  058%=      5-min Rain = 0
KLA1 250030Z 08012KT 21/13 A298 RMK A01 T02070125  RH  059%=      5-min Rain = 0
KLA1 250031Z 08014KT 21/13 A2979 RMK A01 T02070125  RH  060%=      5-min Rain = 0
KLA1 250032Z 08012KT 21/12 A2979 RMK A01 T02060123  RH  059%=      5-min Rain = 0
KLA1 250033Z 08012KT 21/12 A2979 RMK A01 T02060123  RH  059%=      5-min Rain = 0
KLA1 250034Z 09013KT 21/12 A2979 RMK A01 T02060122  RH  059%=      5-min Rain = 0
KLA1 250035Z 10012KT 21/12 A2979 RMK A01 T02070121  RH  058%=      5-min Rain = 0
KLA1 250036Z 08014KT 21/12 A2979 RMK A01 T02080123  RH  058%=      5-min Rain = 0
KLA1 250037Z 08012KT 21/12 A2979 RMK A01 T02080123  RH  058%=      5-min Rain = 0
KLA1 250038Z 07013G18KT 21/12 A2978 RMK A01 T02070124  RH  059%=      5-min Rain = 0
KLA1 250039Z 07015KT 21/12 A2978 RMK A01 T02070124  RH  059%=      5-min Rain = 0
KLA1 250040Z 07016G22KT 21/13 A2977 RMK A01 T02070125  RH  059%=      5-min Rain = 0
KLA1 250041Z 07015G21KT 21/13 A2976 RMK A01 T02060126  RH  060%=      5-min Rain = 0
KLA1 250042Z 06019G24KT 21/13 A2975 RMK A01 T02050127  RH  061%=      5-min Rain = 0
KLA1 250043Z 06019KT 20/13 A2974 RMK A01 T02040125  RH  060%=      5-min Rain = 0
KLA1 250044Z 05018G23KT 20/13 A2973 RMK A01 T02040126  RH  061%=      5-min Rain = 0
KLA1 250045Z 05017KT 20/13 A2973 RMK A01 T02030125  RH  061%=      5-min Rain = 0
KLA1 250046Z 05019G26KT 20/12 A2973 RMK A01 T02040123  RH  060%=      5-min Rain = 0
KLA1 250047Z 04016G23KT 20/12 A2973 RMK A01 T02040123  RH  059%=      5-min Rain = 0
KLA1 250048Z 04022G27KT 21/12 A2973 RMK A01 T02050121  RH  058%=      5-min Rain = 0
KLA1 250049Z 05020G26KT 21/12 A2973 RMK A01 T02060119  RH  057%=      5-min Rain = 0
KLA1 250050Z 05022G27KT 21/12 A2972 RMK A01 T02070120  RH  057%=      5-min Rain = 0
KLA1 250051Z 04022G29KT 21/12 A2972 RMK A01 T02080121  RH  058%=      5-min Rain = 0
KLA1 250052Z 05018G26KT 21/12 A2972 RMK A01 T02070122  RH  058%=      5-min Rain = 0
KLA1 250053Z 04019G25KT 21/12 A2973 RMK A01 T02070122  RH  058%=      5-min Rain = 0
KLA1 250054Z 05017KT 21/12 A2972 RMK A01 T02060122  RH  058%=      5-min Rain = 0
KLA1 250055Z 05016G21KT 21/12 A2972 RMK A01 T02060122  RH  059%=      5-min Rain = 0
KLA1 250056Z 04016G22KT 21/12 A2972 RMK A01 T02060123  RH  059%=      5-min Rain = 0
KLA1 250057Z 05017G22KT 21/12 A2972 RMK A01 T02050122  RH  059%=      5-min Rain = 0
KLA1 250058Z 05015G21KT 21/12 A2972 RMK A01 T02060120  RH  058%=      5-min Rain = 0
KLA1 250059Z 05017G23KT 21/12 A2972 RMK A01 T02060120  RH  058%=      5-min Rain = 0
KLA1 250100Z 05013G18KT 21/12 A2972 RMK A01 T02070119  RH  057%=      5-min Rain = 0
KLA1 250101Z 04010G18KT 21/12 A2971 RMK A01 T02070121  RH  058%=      5-min Rain = 0
KLA1 250102Z 04010KT 21/12 A2971 RMK A01 T02070123  RH  059%=      5-min Rain = 0
KLA1 250103Z 04011KT 21/12 A2971 RMK A01 T02060124  RH  059%=      5-min Rain = 0
KLA1 250104Z 04011G16KT 21/12 A2971 RMK A01 T02050123  RH  059%=      5-min Rain = 0
KLA1 250105Z 05011KT 21/12 A2971 RMK A01 T02050122  RH  059%=      5-min Rain = 0
KLA1 250106Z 05012KT 21/12 A2971 RMK A01 T02060120  RH  058%=      5-min Rain = 0
KLA1 250107Z 05011KT 21/12 A297 RMK A01 T02070119  RH  057%=      5-min Rain = 0
KLA1 250108Z 04010KT 21/12 A297 RMK A01 T02070119  RH  057%=      5-min Rain = 0
KLA1 250109Z 04010KT 21/12 A297 RMK A01 T02080119  RH  057%=      5-min Rain = 0
KLA1 250110Z 04010G16KT 21/12 A297 RMK A01 T02080119  RH  057%=      5-min Rain = 0
KLA1 250111Z 04010KT 21/12 A297 RMK A01 T02080120  RH  057%=      5-min Rain = 0
KLA1 250112Z 04008KT 21/12 A2971 RMK A01 T02080122  RH  058%=      5-min Rain = 0
KLA1 250113Z 04010G16KT 21/12 A2971 RMK A01 T02080123  RH  058%=      5-min Rain = 0
KLA1 250114Z 04010KT 21/12 A2971 RMK A01 T02070123  RH  058%=      5-min Rain = 0
KLA1 250115Z 04007KT 21/12 A297 RMK A01 T02070124  RH  059%=      5-min Rain = 0
KLA1 250116Z 04008KT 21/12 A297 RMK A01 T02060124  RH  059%=      5-min Rain = 0
KLA1 250117Z 04008KT 21/12 A297 RMK A01 T02060123  RH  059%=      5-min Rain = 0
KLA1 250118Z 05008KT 21/12 A297 RMK A01 T02060123  RH  059%=      5-min Rain = 0
KLA1 250119Z 05009KT 21/12 A297 RMK A01 T02060122  RH  058%=      5-min Rain = 0
KLA1 250120Z 05008KT 21/12 A297 RMK A01 T02070120  RH  057%=      5-min Rain = 0
KLA1 250121Z 05009KT 21/12 A297 RMK A01 T02080119  RH  057%=      5-min Rain = 0
KLA1 250122Z 06007KT 21/12 A297 RMK A01 T02090119  RH  056%=      5-min Rain = 0
KLA1 250123Z 05006KT 21/12 A297 RMK A01 T02100119  RH  056%=      5-min Rain = 0
KLA1 250124Z 06007KT 21/12 A297 RMK A01 T02100118  RH  056%=      5-min Rain = 0
KLA1 250125Z 06006KT 21/12 A297 RMK A01 T02100117  RH  055%=      5-min Rain = 0
KLA1 250126Z 07005KT 21/12 A2971 RMK A01 T02110118  RH  055%=      5-min Rain = 0
KLA1 250127Z 07006KT 21/12 A2971 RMK A01 T02110119  RH  056%=      5-min Rain = 0
KLA1 250128Z 07004KT 21/12 A2971 RMK A01 T02110117  RH  055%=      5-min Rain = 0
KLA1 250129Z 07005KT 21/12 A297 RMK A01 T02110118  RH  055%=      5-min Rain = 0
KLA1 250130Z 08007KT 21/12 A297 RMK A01 T02110117  RH  055%=      5-min Rain = 0
KLA1 250131Z 09008KT 21/12 A297 RMK A01 T02110116  RH  054%=      5-min Rain = 0
KLA1 250132Z 09007KT 21/12 A297 RMK A01 T02120116  RH  054%=      5-min Rain = 0
KLA1 250133Z 10006KT 21/12 A297 RMK A01 T02120116  RH  054%=      5-min Rain = 0
KLA1 250134Z 08006KT 21/12 A297 RMK A01 T02120116  RH  054%=      5-min Rain = 0
KLA1 250135Z 10005KT 21/12 A297 RMK A01 T02120117  RH  055%=      5-min Rain = 0
KLA1 250136Z 11006KT 21/12 A297 RMK A01 T02110120  RH  056%=      5-min Rain = 0
KLA1 250137Z 11007KT 21/12 A297 RMK A01 T02100122  RH  057%=      5-min Rain = 0
KLA1 250138Z 12007KT 21/12 A297 RMK A01 T02080123  RH  058%=      5-min Rain = 0
KLA1 250139Z 12008KT 21/13 A297 RMK A01 T02060125  RH  060%=      5-min Rain = 0
KLA1 250140Z 11008KT 20/13 A297 RMK A01 T02040125  RH  060%=      5-min Rain = 0
KLA1 250141Z 11007KT 20/13 A297 RMK A01 T02030126  RH  061%=      5-min Rain = 0
KLA1 250142Z 11007KT 20/13 A297 RMK A01 T02030126  RH  061%=      5-min Rain = 0
KLA1 250143Z 11007KT 20/12 A297 RMK A01 T02020124  RH  061%=      5-min Rain = 0
KLA1 250144Z 10008KT 20/12 A297 RMK A01 T02020122  RH  060%=      5-min Rain = 0
KLA1 250145Z 10007KT 20/12 A297 RMK A01 T02020122  RH  060%=      5-min Rain = 0
KLA1 250146Z 11007KT 20/12 A297 RMK A01 T02020121  RH  059%=      5-min Rain = 0
KLA1 250147Z 10006KT 20/12 A297 RMK A01 T02030122  RH  060%=      5-min Rain = 0
KLA1 250148Z 10007KT 20/12 A297 RMK A01 T02030122  RH  060%=      5-min Rain = 0
KLA1 250149Z 11008KT 20/12 A297 RMK A01 T02030123  RH  060%=      5-min Rain = 0
KLA1 250150Z 11008KT 20/12 A297 RMK A01 T02020122  RH  060%=      5-min Rain = 0
KLA1 250151Z 11008KT 20/12 A297 RMK A01 T02020122  RH  060%=      5-min Rain = 0
KLA1 250152Z 11008KT 20/12 A297 RMK A01 T02020121  RH  060%=      5-min Rain = 0
KLA1 250153Z 12008KT 20/12 A297 RMK A01 T02020121  RH  060%=      5-min Rain = 0
KLA1 250154Z 12005KT 20/12 A297 RMK A01 T02020120  RH  059%=      5-min Rain = 0
KLA1 250155Z 12006KT 20/12 A297 RMK A01 T02020123  RH  060%=      5-min Rain = 0
KLA1 250156Z 12004KT 20/12 A297 RMK A01 T02020124  RH  061%=      5-min Rain = 0
KLA1 250157Z 13005KT 20/12 A2969 RMK A01 T02010124  RH  062%=      5-min Rain = 0
KLA1 250158Z 13005KT 20/13 A2969 RMK A01 T01990125  RH  062%=      5-min Rain = 0
KLA1 250159Z 13005KT 20/13 A2969 RMK A01 T01980125  RH  063%=      5-min Rain = 0
KLA1 250200Z 12004KT 20/13 A2969 RMK A01 T01970126  RH  063%=      5-min Rain = 0
KLA1 250201Z 12003KT 20/13 A2969 RMK A01 T01970127  RH  064%=      5-min Rain = 0
KLA1 250202Z 13002KT 20/13 A2969 RMK A01 T01950126  RH  064%=      5-min Rain = 0
KLA1 250203Z 14003KT 20/13 A2969 RMK A01 T01950125  RH  064%=      5-min Rain = 0
KLA1 250204Z 13002KT 19/13 A2969 RMK A01 T01940127  RH  065%=      5-min Rain = 0
KLA1 250205Z 11002KT 19/13 A2968 RMK A01 T01940126  RH  065%=      5-min Rain = 0
KLA1 250206Z 11002KT 19/13 A2968 RMK A01 T01930125  RH  065%=      5-min Rain = 0
KLA1 250207Z 11002KT 19/13 A2968 RMK A01 T01930125  RH  065%=      5-min Rain = 0
KLA1 250208Z 10003KT 19/12 A2968 RMK A01 T01930124  RH  065%=      5-min Rain = 0
KLA1 250209Z 10003KT 19/13 A2968 RMK A01 T01920125  RH  065%=      5-min Rain = 0
KLA1 250210Z 10004KT 19/13 A2968 RMK A01 T01920125  RH  065%=      5-min Rain = 0
KLA1 250211Z 10005KT 19/13 A2968 RMK A01 T01910125  RH  065%=      5-min Rain = 0
KLA1 250212Z 10006KT 19/12 A2968 RMK A01 T01910124  RH  065%=      5-min Rain = 0
KLA1 250213Z 10005KT 19/12 A2968 RMK A01 T01920123  RH  064%=      5-min Rain = 0
KLA1 250214Z 09006KT 19/12 A2968 RMK A01 T01920123  RH  064%=      5-min Rain = 0
KLA1 250215Z 08005KT 19/12 A2968 RMK A01 T01920123  RH  064%=      5-min Rain = 0
KLA1 250216Z 08005KT 19/12 A2968 RMK A01 T01920123  RH  064%=      5-min Rain = 0
KLA1 250217Z 08007KT 19/12 A2968 RMK A01 T01920123  RH  064%=      5-min Rain = 0
KLA1 250218Z 09006KT 19/12 A2968 RMK A01 T01920123  RH  064%=      5-min Rain = 0
KLA1 250219Z 09006KT 19/12 A2967 RMK A01 T01920123  RH  064%=      5-min Rain = 0
KLA1 250220Z 10007KT 19/12 A2967 RMK A01 T01920123  RH  064%=      5-min Rain = 0
KLA1 250221Z 09007KT 19/12 A2967 RMK A01 T01930122  RH  064%=      5-min Rain = 0
KLA1 250222Z 09008KT 19/12 A2967 RMK A01 T01930122  RH  064%=      5-min Rain = 0
KLA1 250223Z 09008KT 19/12 A2967 RMK A01 T01940123  RH  063%=      5-min Rain = 0
KLA1 250224Z 09007KT 19/12 A2967 RMK A01 T01940123  RH  064%=      5-min Rain = 0
KLA1 250225Z 09007KT 19/12 A2967 RMK A01 T01940124  RH  064%=      5-min Rain = 0
KLA1 250226Z 10007KT 19/12 A2967 RMK A01 T01940124  RH  064%=      5-min Rain = 0
KLA1 250227Z 09006KT 19/12 A2967 RMK A01 T01930122  RH  063%=      5-min Rain = 0
KLA1 250228Z 10006KT 19/12 A2967 RMK A01 T01940123  RH  064%=      5-min Rain = 0
KLA1 250229Z 10006KT 19/12 A2967 RMK A01 T01940124  RH  064%=      5-min Rain = 0
KLA1 250230Z 10007KT 19/12 A2967 RMK A01 T01930124  RH  064%=      5-min Rain = 0
KLA1 250231Z 10007KT 19/12 A2967 RMK A01 T01930124  RH  064%=      5-min Rain = 0
KLA1 250232Z 11006KT 19/12 A2967 RMK A01 T01930123  RH  064%=      5-min Rain = 0
KLA1 250233Z 12005KT 19/12 A2967 RMK A01 T01930123  RH  064%=      5-min Rain = 0
KLA1 250234Z 13006KT 19/12 A2967 RMK A01 T01930124  RH  064%=      5-min Rain = 0
KLA1 250235Z 12005KT 19/13 A2967 RMK A01 T01920126  RH  065%=      5-min Rain = 0
KLA1 250236Z 12006KT 19/13 A2967 RMK A01 T01910127  RH  066%=      5-min Rain = 0
KLA1 250237Z 12006KT 19/13 A2967 RMK A01 T01890128  RH  067%=      5-min Rain = 0
KLA1 250238Z 12006KT 19/13 A2967 RMK A01 T01880128  RH  068%=      5-min Rain = 0
KLA1 250239Z 12007KT 19/13 A2967 RMK A01 T01870127  RH  068%=      5-min Rain = 0
KLA1 250240Z 11006KT 19/13 A2967 RMK A01 T01870127  RH  068%=      5-min Rain = 0
KLA1 250241Z 12006KT 19/13 A2967 RMK A01 T01870127  RH  068%=      5-min Rain = 0
KLA1 250242Z 11006KT 19/13 A2967 RMK A01 T01860126  RH  068%=      5-min Rain = 0
KLA1 250243Z 11005KT 19/13 A2966 RMK A01 T01860125  RH  067%=      5-min Rain = 0
KLA1 250244Z 11005KT 19/13 A2966 RMK A01 T01860125  RH  068%=      5-min Rain = 0
KLA1 250245Z 11005KT 19/12 A2966 RMK A01 T01870124  RH  067%=      5-min Rain = 0
KLA1 250246Z 12006KT 19/12 A2966 RMK A01 T01880122  RH  066%=      5-min Rain = 0
KLA1 250247Z 12005KT 19/12 A2966 RMK A01 T01890122  RH  065%=      5-min Rain = 0
KLA1 250248Z 11005KT 19/12 A2966 RMK A01 T01900122  RH  064%=      5-min Rain = 0
KLA1 250249Z 11004KT 19/12 A2966 RMK A01 T01910122  RH  064%=      5-min Rain = 0
KLA1 250250Z 12004KT 19/12 A2966 RMK A01 T01910121  RH  064%=      5-min Rain = 0
KLA1 250251Z 12002KT 19/12 A2965 RMK A01 T01920121  RH  063%=      5-min Rain = 0
KLA1 250252Z 14000KT 19/12 A2965 RMK A01 T01920124  RH  065%=      5-min Rain = 0
KLA1 250253Z 29003KT 19/13 A2965 RMK A01 T01920130  RH  068%=      5-min Rain = 0
KLA1 250254Z 29003KT 19/13 A2966 RMK A01 T01890133  RH  070%=      5-min Rain = 0
KLA1 250255Z 31003KT 19/13 A2966 RMK A01 T01870133  RH  071%=      5-min Rain = 0
KLA1 250256Z 32002KT 19/13 A2966 RMK A01 T01850128  RH  069%=      5-min Rain = 0
KLA1 250257Z 32001KT 19/13 A2966 RMK A01 T01850126  RH  068%=      5-min Rain = 0
KLA1 250258Z 33000KT 18/13 A2966 RMK A01 T01840125  RH  068%=      5-min Rain = 0
KLA1 250259Z 33000KT 19/12 A2966 RMK A01 T01850123  RH  067%=      5-min Rain = 0
KLA1 250300Z 01001KT 19/12 A2966 RMK A01 T01850122  RH  067%=      5-min Rain = 0
KLA1 250301Z 01001KT 19/12 A2966 RMK A01 T01860121  RH  066%=      5-min Rain = 0
KLA1 250302Z 01002KT 19/12 A2966 RMK A01 T01870120  RH  065%=      5-min Rain = 0
KLA1 250303Z 02000KT 19/12 A2966 RMK A01 T01870121  RH  065%=      5-min Rain = 0
KLA1 250304Z 01000KT 19/12 A2966 RMK A01 T01870121  RH  065%=      5-min Rain = 0
KLA1 250305Z 02000KT 19/12 A2966 RMK A01 T01880122  RH  066%=      5-min Rain = 0
KLA1 250306Z 00000KT 19/12 A2966 RMK A01 T01870123  RH  066%=      5-min Rain = 0
KLA1 250307Z 10001KT 19/13 A2966 RMK A01 T01870126  RH  068%=      5-min Rain = 0
KLA1 250308Z 14002KT 19/13 A2966 RMK A01 T01850126  RH  068%=      5-min Rain = 0
KLA1 250309Z 11003KT 19/13 A2967 RMK A01 T01850125  RH  068%=      5-min Rain = 0
KLA1 250310Z 10004KT 18/13 A2967 RMK A01 T01840125  RH  068%=      5-min Rain = 0
KLA1 250311Z 10005KT 18/12 A2967 RMK A01 T01840124  RH  068%=      5-min Rain = 0
KLA1 250312Z 10005KT 19/12 A2967 RMK A01 T01850122  RH  067%=      5-min Rain = 0
KLA1 250313Z 09004KT 19/12 A2967 RMK A01 T01860123  RH  067%=      5-min Rain = 0
KLA1 250314Z 09004KT 19/12 A2968 RMK A01 T01870123  RH  066%=      5-min Rain = 0
KLA1 250315Z 10004KT 19/12 A2968 RMK A01 T01870122  RH  066%=      5-min Rain = 0
KLA1 250316Z 09004KT 19/12 A2968 RMK A01 T01880122  RH  065%=      5-min Rain = 0
KLA1 250317Z 09006KT 19/12 A2968 RMK A01 T01880123  RH  066%=      5-min Rain = 0
KLA1 250318Z 09005KT 19/12 A2968 RMK A01 T01890124  RH  066%=      5-min Rain = 0
KLA1 250319Z 09006KT 19/12 A2968 RMK A01 T01880123  RH  066%=      5-min Rain = 0
KLA1 250320Z 10006KT 19/12 A2968 RMK A01 T01880122  RH  065%=      5-min Rain = 0
KLA1 250321Z 10006KT 19/12 A2968 RMK A01 T01890121  RH  064%=      5-min Rain = 0
KLA1 250322Z 10006KT 19/12 A2968 RMK A01 T01900121  RH  064%=      5-min Rain = 0
KLA1 250323Z 10006KT 19/12 A2969 RMK A01 T01900120  RH  064%=      5-min Rain = 0
KLA1 250324Z 10006KT 19/12 A2969 RMK A01 T01920120  RH  063%=      5-min Rain = 0
KLA1 250325Z 10006KT 19/12 A2969 RMK A01 T01920119  RH  063%=      5-min Rain = 0
KLA1 250326Z 10006KT 19/12 A2969 RMK A01 T01930120  RH  063%=      5-min Rain = 0
KLA1 250327Z 10005KT 19/12 A2969 RMK A01 T01920120  RH  063%=      5-min Rain = 0
KLA1 250328Z 10005KT 19/12 A2969 RMK A01 T01930120  RH  063%=      5-min Rain = 0
KLA1 250329Z 10005KT 19/12 A2969 RMK A01 T01930119  RH  062%=      5-min Rain = 0
KLA1 250330Z 09004KT 19/12 A297 RMK A01 T01940118  RH  061%=      5-min Rain = 0
KLA1 250331Z 10004KT 19/12 A297 RMK A01 T01940118  RH  061%=      5-min Rain = 0
KLA1 250332Z 08004KT 19/12 A297 RMK A01 T01940119  RH  062%=      5-min Rain = 0
KLA1 250333Z 07004KT 19/12 A297 RMK A01 T01940119  RH  062%=      5-min Rain = 0
KLA1 250334Z 08004KT 19/12 A297 RMK A01 T01940119  RH  062%=      5-min Rain = 0
KLA1 250335Z 08005KT 19/12 A297 RMK A01 T01940120  RH  062%=      5-min Rain = 0
KLA1 250336Z 09005KT 19/12 A297 RMK A01 T01930121  RH  063%=      5-min Rain = 0
KLA1 250337Z 09005KT 19/12 A297 RMK A01 T01930121  RH  063%=      5-min Rain = 0
KLA1 250338Z 09005KT 19/12 A297 RMK A01 T01920121  RH  063%=      5-min Rain = 0
KLA1 250339Z 09005KT 19/12 A297 RMK A01 T01920120  RH  063%=      5-min Rain = 0
KLA1 250340Z 09005KT 19/12 A2971 RMK A01 T01920121  RH  063%=      5-min Rain = 0
KLA1 250341Z 08005KT 19/12 A2971 RMK A01 T01920121  RH  063%=      5-min Rain = 0
KLA1 250342Z 09005KT 19/12 A2971 RMK A01 T01920120  RH  063%=      5-min Rain = 0
KLA1 250343Z 07005KT 19/12 A2971 RMK A01 T01920120  RH  063%=      5-min Rain = 0
KLA1 250344Z 07004KT 19/12 A2971 RMK A01 T01920120  RH  063%=      5-min Rain = 0
KLA1 250345Z 07005KT 19/12 A2971 RMK A01 T01920120  RH  063%=      5-min Rain = 0
KLA1 250346Z 07004KT 19/12 A2971 RMK A01 T01920121  RH  063%=      5-min Rain = 0
KLA1 250347Z 08005KT 19/12 A2971 RMK A01 T01920121  RH  063%=      5-min Rain = 0
KLA1 250348Z 07004KT 19/12 A2971 RMK A01 T01920121  RH  063%=      5-min Rain = 0
KLA1 250349Z 07004KT 19/12 A2971 RMK A01 T01920120  RH  063%=      5-min Rain = 0
KLA1 250350Z 07004KT 19/12 A2971 RMK A01 T01920120  RH  063%=      5-min Rain = 0
KLA1 250351Z 06002KT 19/12 A2971 RMK A01 T01930120  RH  063%=      5-min Rain = 0
KLA1 250352Z 05001KT 19/12 A2971 RMK A01 T01930119  RH  062%=      5-min Rain = 0
KLA1 250353Z 36003KT 19/12 A297 RMK A01 T01930121  RH  063%=      5-min Rain = 0
KLA1 250354Z 36003KT 19/12 A297 RMK A01 T01930123  RH  064%=      5-min Rain = 0
KLA1 250355Z 33001KT 19/12 A2971 RMK A01 T01920123  RH  064%=      5-min Rain = 0
KLA1 250356Z 29001KT 19/12 A2971 RMK A01 T01910122  RH  064%=      5-min Rain = 0
KLA1 250357Z 27000KT 19/12 A2971 RMK A01 T01910121  RH  064%=      5-min Rain = 0
KLA1 250358Z 00000KT 19/12 A2971 RMK A01 T01910120  RH  063%=      5-min Rain = 0
KLA1 250359Z 20002KT 19/12 A2971 RMK A01 T01910120  RH  063%=      5-min Rain = 0
KLA1 250400Z 18003KT 19/12 A2971 RMK A01 T01910121  RH  064%=      5-min Rain = 0
KLA1 250401Z 18002KT 19/12 A2972 RMK A01 T01910122  RH  064%=      5-min Rain = 0
KLA1 250402Z 16003KT 19/12 A2972 RMK A01 T01910119  RH  063%=      5-min Rain = 0
KLA1 250403Z 16003KT 19/12 A2972 RMK A01 T01920119  RH  063%=      5-min Rain = 0
KLA1 250404Z 15004KT 19/12 A2972 RMK A01 T01920121  RH  063%=      5-min Rain = 0
KLA1 250405Z 14003KT 19/12 A2972 RMK A01 T01920123  RH  064%=      5-min Rain = 0
KLA1 250406Z 12004KT 19/12 A2972 RMK A01 T01910124  RH  065%=      5-min Rain = 0
KLA1 250407Z 11004KT 19/12 A2973 RMK A01 T01900124  RH  066%=      5-min Rain = 0
KLA1 250408Z 11004KT 19/13 A2973 RMK A01 T01880125  RH  067%=      5-min Rain = 0
KLA1 250409Z 11005KT 19/13 A2973 RMK A01 T01870125  RH  067%=      5-min Rain = 0
KLA1 250410Z 11005KT 19/13 A2973 RMK A01 T01860125  RH  068%=      5-min Rain = 0
KLA1 250411Z 11004KT 19/12 A2973 RMK A01 T01860124  RH  067%=      5-min Rain = 0
KLA1 250412Z 10005KT 19/12 A2973 RMK A01 T01860124  RH  067%=      5-min Rain = 0
KLA1 250413Z 09005KT 19/12 A2973 RMK A01 T01860121  RH  066%=      5-min Rain = 0
KLA1 250414Z 09005KT 19/12 A2973 RMK A01 T01880119  RH  064%=      5-min Rain = 0
KLA1 250415Z 09006KT 19/12 A2973 RMK A01 T01900120  RH  064%=      5-min Rain = 0
KLA1 250416Z 09005KT 19/12 A2973 RMK A01 T01900120  RH  064%=      5-min Rain = 0
KLA1 250417Z 08005KT 19/12 A2973 RMK A01 T01910120  RH  063%=      5-min Rain = 0
KLA1 250418Z 08005KT 19/12 A2974 RMK A01 T01910121  RH  063%=      5-min Rain = 0
KLA1 250419Z 06004KT 19/12 A2974 RMK A01 T01910121  RH  064%=      5-min Rain = 0
KLA1 250420Z 06004KT 19/12 A2974 RMK A01 T01910122  RH  064%=      5-min Rain = 0
KLA1 250421Z 05004KT 19/12 A2973 RMK A01 T01900123  RH  065%=      5-min Rain = 0
KLA1 250422Z 05004KT 19/12 A2973 RMK A01 T01900123  RH  065%=      5-min Rain = 0
KLA1 250423Z 05004KT 19/12 A2973 RMK A01 T01890123  RH  065%=      5-min Rain = 0
KLA1 250424Z 06003KT 19/12 A2973 RMK A01 T01890122  RH  065%=      5-min Rain = 0
KLA1 250425Z 07003KT 19/12 A2973 RMK A01 T01880122  RH  065%=      5-min Rain = 0
KLA1 250426Z 08003KT 19/12 A2974 RMK A01 T01880121  RH  065%=      5-min Rain = 0
KLA1 250427Z 10003KT 19/12 A2974 RMK A01 T01880123  RH  066%=      5-min Rain = 0
KLA1 250428Z 09003KT 19/12 A2974 RMK A01 T01870123  RH  066%=      5-min Rain = 0
KLA1 250429Z 09003KT 19/13 A2974 RMK A01 T01870125  RH  067%=      5-min Rain = 0
KLA1 250430Z 08003KT 19/12 A2974 RMK A01 T01860122  RH  066%=      5-min Rain = 0
KLA1 250431Z 07003KT 19/12 A2974 RMK A01 T01860122  RH  066%=      5-min Rain = 0
KLA1 250432Z 05003KT 19/12 A2974 RMK A01 T01860122  RH  066%=      5-min Rain = 0
KLA1 250433Z 05003KT 19/12 A2974 RMK A01 T01860122  RH  066%=      5-min Rain = 0
KLA1 250434Z 06003KT 19/12 A2974 RMK A01 T01860121  RH  066%=      5-min Rain = 0
KLA1 250435Z 08002KT 19/12 A2974 RMK A01 T01870120  RH  065%=      5-min Rain = 0
KLA1 250436Z 09002KT 19/12 A2974 RMK A01 T01880121  RH  065%=      5-min Rain = 0
KLA1 250437Z 10001KT 19/12 A2975 RMK A01 T01880121  RH  065%=      5-min Rain = 0
KLA1 250438Z 11001KT 19/12 A2975 RMK A01 T01870122  RH  066%=      5-min Rain = 0
KLA1 250439Z 20004KT 19/13 A2975 RMK A01 T01860125  RH  068%=      5-min Rain = 0
KLA1 250440Z 22003KT 19/13 A2975 RMK A01 T01850131  RH  071%=      5-min Rain = 0
KLA1 250441Z 21001KT 18/13 A2975 RMK A01 T01830133  RH  073%=      5-min Rain = 0
KLA1 250442Z 23001KT 18/13 A2975 RMK A01 T01820134  RH  074%=      5-min Rain = 0
KLA1 250443Z 27002KT 18/13 A2975 RMK A01 T01800134  RH  074%=      5-min Rain = 0
KLA1 250444Z 29003KT 18/13 A2976 RMK A01 T01780134  RH  075%=      5-min Rain = 0
KLA1 250445Z 30003KT 18/13 A2976 RMK A01 T01770133  RH  075%=      5-min Rain = 0
KLA1 250446Z 31003KT 18/13 A2976 RMK A01 T01760132  RH  076%=      5-min Rain = 0
KLA1 250447Z 32003KT 18/13 A2976 RMK A01 T01750132  RH  076%=      5-min Rain = 0
KLA1 250448Z 32002KT 18/13 A2976 RMK A01 T01750132  RH  076%=      5-min Rain = 0
KLA1 250449Z 34001KT 17/13 A2976 RMK A01 T01740131  RH  076%=      5-min Rain = 0
KLA1 250450Z 35000KT 17/13 A2976 RMK A01 T01740129  RH  075%=      5-min Rain = 0
KLA1 250451Z 00000KT 17/13 A2976 RMK A01 T01740129  RH  075%=      5-min Rain = 0
KLA1 250452Z 00000KT 17/13 A2976 RMK A01 T01740130  RH  075%=      5-min Rain = 0
KLA1 250453Z 29001KT 17/13 A2977 RMK A01 T01740130  RH  075%=      5-min Rain = 0
KLA1 250454Z 28001KT 18/13 A2977 RMK A01 T01750131  RH  075%=      5-min Rain = 0
KLA1 250455Z 31001KT 18/13 A2976 RMK A01 T01750132  RH  076%=      5-min Rain = 0
KLA1 250456Z 32002KT 18/13 A2976 RMK A01 T01750133  RH  077%=      5-min Rain = 0
KLA1 250457Z 33001KT 17/13 A2976 RMK A01 T01740133  RH  077%=      5-min Rain = 0
KLA1 250458Z 04001KT 17/13 A2976 RMK A01 T01740126  RH  073%=      5-min Rain = 0
KLA1 250459Z 03000KT 18/13 A2976 RMK A01 T01750125  RH  072%=      5-min Rain = 0

Page generated in 0.1174 seconds.